Wetterdaten: aktuell Sonntag, 21.04.2019 12:13
Datum Zeit Temp. A. Feuchte A. Luftdruck Regen Wind Richtung Richtung Taupunkt Windchill
21.04.2019 12:13 18,3 C 35 % 1021,8 hPa 0,0 l/m 19,3 km/h (3 Bft) O-NO 76 2,6 C 14,2 C
21.04.2019 12:12 18,2 C 35 % 1021,8 hPa 0,0 l/m 11,3 km/h (2 Bft) O 82 2,5 C 16,2 C
21.04.2019 12:11 18,2 C 34 % 1021,9 hPa 0,0 l/m 13,0 km/h (3 Bft) O-NO 71 2,1 C 15,6 C
21.04.2019 12:10 18,2 C 35 % 1021,9 hPa 0,0 l/m 20,9 km/h (4 Bft) O 84 2,5 C 13,7 C
21.04.2019 12:09 18,1 C 35 % 1021,8 hPa 0,0 l/m 16,1 km/h (3 Bft) O-NO 72 2,4 C 14,7 C
21.04.2019 12:08 18,1 C 34 % 1021,9 hPa 0,0 l/m 14,4 km/h (3 Bft) O-NO 78 2,0 C 15,1 C
21.04.2019 12:07 18,0 C 34 % 1021,9 hPa 0,0 l/m 17,8 km/h (3 Bft) O-NO 78 1,9 C 14,1 C
21.04.2019 12:06 17,9 C 34 % 1021,9 hPa 0,0 l/m 13,0 km/h (3 Bft) SO 143 1,8 C 15,3 C
21.04.2019 12:05 17,9 C 34 % 1021,9 hPa 0,0 l/m 16,1 km/h (3 Bft) O-NO 77 1,8 C 14,4 C
21.04.2019 12:04 17,9 C 34 % 1022,0 hPa 0,0 l/m 16,1 km/h (3 Bft) O 94 1,8 C 14,4 C
21.04.2019 12:03 17,9 C 34 % 1022,0 hPa 0,0 l/m 25,7 km/h (4 Bft) O 84 1,8 C 12,4 C
21.04.2019 12:02 17,8 C 35 % 1022,0 hPa 0,0 l/m 14,4 km/h (3 Bft) O-NO 71 2,1 C 14,8 C
21.04.2019 12:01 17,8 C 35 % 1022,0 hPa 0,0 l/m 25,7 km/h (4 Bft) O 90 2,1 C 12,3 C
21.04.2019 12:00 17,8 C 35 % 1022,0 hPa 0,0 l/m 24,1 km/h (4 Bft) O 93 2,1 C 12,6 C
21.04.2019 11:59 17,8 C 34 % 1022,0 hPa 0,0 l/m 19,3 km/h (3 Bft) O-NO 71 1,7 C 13,5 C
21.04.2019 11:58 17,9 C 34 % 1022,0 hPa 0,0 l/m 25,7 km/h (4 Bft) O 85 1,8 C 12,4 C
21.04.2019 11:57 17,9 C 35 % 1022,0 hPa 0,0 l/m 25,7 km/h (4 Bft) O 95 2,2 C 12,4 C
21.04.2019 11:56 17,9 C 35 % 1022,0 hPa 0,0 l/m 20,9 km/h (4 Bft) O-SO 104 2,2 C 13,3 C
21.04.2019 11:55 17,9 C 35 % 1022,0 hPa 0,0 l/m 17,8 km/h (3 Bft) O 91 2,2 C 14,0 C
21.04.2019 11:54 17,9 C 35 % 1022,0 hPa 0,0 l/m 19,3 km/h (3 Bft) O-NO 78 2,2 C 13,6 C
21.04.2019 11:53 17,9 C 34 % 1022,0 hPa 0,0 l/m 20,9 km/h (4 Bft) O-NO 59 1,8 C 13,3 C
21.04.2019 11:52 17,9 C 35 % 1022,1 hPa 0,0 l/m 20,9 km/h (4 Bft) O 88 2,2 C 13,3 C
21.04.2019 11:51 17,9 C 35 % 1022,1 hPa 0,0 l/m 16,1 km/h (3 Bft) O 81 2,2 C 14,4 C
21.04.2019 11:50 17,9 C 35 % 1022,0 hPa 0,0 l/m 22,6 km/h (4 Bft) O 96 2,2 C 13,0 C
21.04.2019 11:49 17,9 C 35 % 1022,1 hPa 0,0 l/m 16,1 km/h (3 Bft) O 98 2,2 C 14,4 C
21.04.2019 11:48 17,9 C 35 % 1022,2 hPa 0,0 l/m 14,4 km/h (3 Bft) S-SO 165 2,2 C 14,9 C
21.04.2019 11:47 17,8 C 37 % 1022,2 hPa 0,0 l/m 11,3 km/h (2 Bft) O 83 2,9 C 15,7 C
21.04.2019 11:46 17,6 C 37 % 1022,2 hPa 0,0 l/m 8,0 km/h (2 Bft) NO 42 2,7 C 16,8 C
21.04.2019 11:45 17,6 C 36 % 1022,2 hPa 0,0 l/m 14,4 km/h (3 Bft) O 81 2,4 C 14,5 C
21.04.2019 11:44 17,6 C 36 % 1022,2 hPa 0,0 l/m 22,6 km/h (4 Bft) O-SO 115 2,4 C 12,6 C
21.04.2019 11:43 17,6 C 36 % 1022,2 hPa 0,0 l/m 11,3 km/h (2 Bft) O 84 2,4 C 15,5 C
21.04.2019 11:42 17,6 C 36 % 1022,3 hPa 0,0 l/m 19,3 km/h (3 Bft) O-NO 78 2,4 C 13,3 C
21.04.2019 11:41 17,6 C 36 % 1022,2 hPa 0,0 l/m 20,9 km/h (4 Bft) O-NO 69 2,4 C 12,9 C
21.04.2019 11:39 17,6 C 37 % 1022,4 hPa 0,0 l/m 24,1 km/h (4 Bft) O-SO 109 2,7 C 12,3 C
21.04.2019 11:38 17,6 C 36 % 1022,3 hPa 0,0 l/m 20,9 km/h (4 Bft) O 86 2,4 C 12,9 C
21.04.2019 11:37 17,5 C 37 % 1022,4 hPa 0,0 l/m 16,1 km/h (3 Bft) O 81 2,7 C 13,9 C
21.04.2019 11:36 17,5 C 36 % 1022,4 hPa 0,0 l/m 11,3 km/h (2 Bft) O-SO 116 2,3 C 15,4 C
21.04.2019 11:35 17,5 C 36 % 1022,4 hPa 0,0 l/m 13,0 km/h (3 Bft) O 101 2,3 C 14,8 C
21.04.2019 11:34 17,5 C 37 % 1022,3 hPa 0,0 l/m 13,0 km/h (3 Bft) NO 51 2,7 C 14,8 C
21.04.2019 11:33 17,5 C 37 % 1022,4 hPa 0,0 l/m 17,8 km/h (3 Bft) O 90 2,7 C 13,5 C
21.04.2019 11:32 17,4 C 37 % 1022,5 hPa 0,0 l/m 8,0 km/h (2 Bft) O-NO 77 2,6 C 16,6 C
21.04.2019 11:31 17,5 C 36 % 1022,5 hPa 0,0 l/m 17,8 km/h (3 Bft) O-NO 64 2,3 C 13,5 C
21.04.2019 11:30 17,4 C 38 % 1022,4 hPa 0,0 l/m 16,1 km/h (3 Bft) O 99 2,9 C 13,8 C
21.04.2019 11:29 17,3 C 39 % 1022,5 hPa 0,0 l/m 17,8 km/h (3 Bft) O-SO 118 3,2 C 13,2 C
21.04.2019 11:28 17,3 C 39 % 1022,5 hPa 0,0 l/m 11,3 km/h (2 Bft) O-SO 119 3,2 C 15,2 C
21.04.2019 11:27 17,2 C 38 % 1022,5 hPa 0,0 l/m 3,1 km/h (1 Bft) O-SO 106 2,8 C 17,2 C
21.04.2019 11:26 17,1 C 38 % 1022,5 hPa 0,0 l/m 16,1 km/h (3 Bft) SO 142 2,7 C 13,4 C
21.04.2019 11:25 17,1 C 38 % 1022,5 hPa 0,0 l/m 13,0 km/h (3 Bft) S-SO 155 2,7 C 14,4 C
21.04.2019 11:24 17,0 C 38 % 1022,5 hPa 0,0 l/m 9,6 km/h (2 Bft) SO 127 2,6 C 15,5 C
21.04.2019 11:23 17,0 C 38 % 1022,5 hPa 0,0 l/m 11,3 km/h (2 Bft) O 85 2,6 C 14,8 C
21.04.2019 11:22 16,8 C 38 % 1022,5 hPa 0,0 l/m 11,3 km/h (2 Bft) O-NO 69 2,4 C 14,6 C
21.04.2019 11:21 16,8 C 39 % 1022,5 hPa 0,0 l/m 11,3 km/h (2 Bft) SO 134 2,8 C 14,6 C
21.04.2019 11:20 16,7 C 39 % 1022,5 hPa 0,0 l/m 16,1 km/h (3 Bft) O 99 2,7 C 12,9 C
21.04.2019 11:19 16,6 C 40 % 1022,5 hPa 0,0 l/m 16,1 km/h (3 Bft) O-SO 121 2,9 C 12,8 C
21.04.2019 11:18 16,5 C 40 % 1022,6 hPa 0,0 l/m 9,6 km/h (2 Bft) O 96 2,9 C 14,9 C
21.04.2019 11:17 16,4 C 39 % 1022,5 hPa 0,0 l/m 14,4 km/h (3 Bft) O 95 2,4 C 13,1 C
21.04.2019 11:16 16,4 C 38 % 1022,6 hPa 0,0 l/m 14,4 km/h (3 Bft) O-NO 76 2,1 C 13,1 C
21.04.2019 11:15 16,5 C 38 % 1022,6 hPa 0,0 l/m 14,4 km/h (3 Bft) O-NO 66 2,1 C 13,2 C
21.04.2019 11:14 16,5 C 38 % 1022,6 hPa 0,0 l/m 13,0 km/h (3 Bft) O-NO 73 2,1 C 13,6 C
21.04.2019 11:13 16,5 C 38 % 1022,6 hPa 0,0 l/m 14,4 km/h (3 Bft) O 79 2,1 C 13,2 C
21.04.2019 11:12 16,5 C 39 % 1022,6 hPa 0,0 l/m 22,6 km/h (4 Bft) O-NO 76 2,5 C 11,1 C
21.04.2019 11:11 16,4 C 39 % 1022,6 hPa 0,0 l/m 14,4 km/h (3 Bft) O-SO 121 2,4 C 13,1 C
21.04.2019 11:10 16,4 C 38 % 1022,6 hPa 0,0 l/m 14,4 km/h (3 Bft) O-NO 57 2,1 C 13,1 C
21.04.2019 11:09 16,4 C 39 % 1022,6 hPa 0,0 l/m 16,1 km/h (3 Bft) O-NO 76 2,4 C 12,6 C
21.04.2019 11:08 16,3 C 38 % 1022,6 hPa 0,0 l/m 16,1 km/h (3 Bft) O-NO 69 2,0 C 12,4 C
21.04.2019 11:07 16,3 C 38 % 1022,6 hPa 0,0 l/m 17,8 km/h (3 Bft) NO 40 2,0 C 12,0 C
21.04.2019 11:06 16,2 C 39 % 1022,6 hPa 0,0 l/m 16,1 km/h (3 Bft) O 90 2,2 C 12,3 C
21.04.2019 11:05 16,2 C 38 % 1022,7 hPa 0,0 l/m 13,0 km/h (3 Bft) O 86 1,9 C 13,3 C
21.04.2019 11:04 16,2 C 38 % 1022,7 hPa 0,0 l/m 20,9 km/h (4 Bft) O-NO 69 1,9 C 11,1 C
21.04.2019 11:03 16,2 C 38 % 1022,7 hPa 0,0 l/m 20,9 km/h (4 Bft) O-NO 77 1,9 C 11,1 C
21.04.2019 11:02 16,3 C 38 % 1022,7 hPa 0,0 l/m 11,3 km/h (2 Bft) O-SO 103 2,0 C 14,0 C
21.04.2019 11:01 16,3 C 37 % 1022,6 hPa 0,0 l/m 22,6 km/h (4 Bft) O 92 1,6 C 10,8 C
21.04.2019 11:00 16,3 C 39 % 1022,7 hPa 0,0 l/m 20,9 km/h (4 Bft) O-NO 71 2,3 C 11,2 C
21.04.2019 10:59 16,1 C 39 % 1022,7 hPa 0,0 l/m 13,0 km/h (3 Bft) O 94 2,1 C 13,2 C
21.04.2019 10:58 16,0 C 39 % 1022,7 hPa 0,0 l/m 8,0 km/h (2 Bft) SO 140 2,1 C 15,2 C
21.04.2019 10:57 15,9 C 39 % 1022,7 hPa 0,0 l/m 20,9 km/h (4 Bft) O 93 2,0 C 10,7 C
21.04.2019 10:56 15,9 C 38 % 1022,7 hPa 0,0 l/m 16,1 km/h (3 Bft) O 92 1,6 C 11,9 C
21.04.2019 10:55 15,9 C 38 % 1022,7 hPa 0,0 l/m 20,9 km/h (4 Bft) O-NO 58 1,6 C 10,7 C
21.04.2019 10:54 15,9 C 38 % 1022,7 hPa 0,0 l/m 16,1 km/h (3 Bft) O 82 1,6 C 11,9 C
21.04.2019 10:53 15,9 C 39 % 1022,6 hPa 0,0 l/m 20,9 km/h (4 Bft) O-NO 74 2,0 C 10,7 C
21.04.2019 10:52 15,8 C 38 % 1022,7 hPa 0,0 l/m 17,8 km/h (3 Bft) O 94 1,5 C 11,3 C
21.04.2019 10:51 15,8 C 38 % 1022,7 hPa 0,0 l/m 22,6 km/h (4 Bft) O 101 1,5 C 10,2 C
21.04.2019 10:50 15,8 C 38 % 1022,7 hPa 0,0 l/m 22,6 km/h (4 Bft) O 86 1,5 C 10,2 C
21.04.2019 10:49 15,8 C 38 % 1022,7 hPa 0,0 l/m 17,8 km/h (3 Bft) O-NO 77 1,5 C 11,3 C
21.04.2019 10:48 15,7 C 39 % 1022,8 hPa 0,0 l/m 14,4 km/h (3 Bft) O 92 1,8 C 12,2 C
21.04.2019 10:47 15,6 C 38 % 1022,8 hPa 0,0 l/m 8,0 km/h (2 Bft) NO 54 1,3 C 14,7 C
21.04.2019 10:46 15,6 C 38 % 1022,8 hPa 0,0 l/m 16,1 km/h (3 Bft) O 82 1,3 C 11,6 C
21.04.2019 10:45 15,6 C 38 % 1022,8 hPa 0,0 l/m 20,9 km/h (4 Bft) O-SO 105 1,3 C 10,3 C
21.04.2019 10:44 15,6 C 39 % 1022,8 hPa 0,0 l/m 9,6 km/h (2 Bft) SO 136 1,7 C 14,0 C
21.04.2019 10:43 15,5 C 39 % 1022,9 hPa 0,0 l/m 9,6 km/h (2 Bft) O 80 1,6 C 13,8 C
21.04.2019 10:42 15,4 C 39 % 1022,8 hPa 0,0 l/m 22,6 km/h (4 Bft) O 100 1,5 C 9,7 C
21.04.2019 10:40 15,3 C 40 % 1022,8 hPa 0,0 l/m 14,4 km/h (3 Bft) O 81 1,8 C 11,8 C
21.04.2019 10:39 15,3 C 40 % 1022,8 hPa 0,0 l/m 16,1 km/h (3 Bft) O 84 1,8 C 11,2 C
21.04.2019 10:38 15,2 C 40 % 1022,9 hPa 0,0 l/m 14,4 km/h (3 Bft) SO 126 1,7 C 11,6 C
21.04.2019 10:37 15,1 C 39 % 1022,9 hPa 0,0 l/m 11,3 km/h (2 Bft) O-NO 59 1,3 C 12,7 C
21.04.2019 10:36 15,2 C 39 % 1022,9 hPa 0,0 l/m 13,0 km/h (3 Bft) O 82 1,3 C 12,1 C
21.04.2019 10:35 15,3 C 39 % 1022,9 hPa 0,0 l/m 20,9 km/h (4 Bft) O 90 1,4 C 9,9 C
21.04.2019 10:34 15,3 C 39 % 1022,9 hPa 0,0 l/m 17,8 km/h (3 Bft) O 81 1,4 C 10,7 C
21.04.2019 10:33 15,3 C 39 % 1022,9 hPa 0,0 l/m 11,3 km/h (2 Bft) O 96 1,4 C 12,9 C
21.04.2019 10:32 15,2 C 39 % 1023,0 hPa 0,0 l/m 13,0 km/h (3 Bft) NO 46 1,3 C 12,1 C
21.04.2019 10:31 15,1 C 40 % 1023,0 hPa 0,0 l/m 20,9 km/h (4 Bft) O-NO 73 1,6 C 9,7 C
21.04.2019 10:30 15,0 C 40 % 1023,0 hPa 0,0 l/m 11,3 km/h (2 Bft) S-SO 148 1,5 C 12,6 C
21.04.2019 10:29 14,9 C 40 % 1023,1 hPa 0,0 l/m 13,0 km/h (3 Bft) O-SO 115 1,4 C 11,8 C
21.04.2019 10:28 14,9 C 40 % 1023,0 hPa 0,0 l/m 13,0 km/h (3 Bft) O 79 1,4 C 11,8 C
21.04.2019 10:27 14,9 C 40 % 1023,1 hPa 0,0 l/m 17,8 km/h (3 Bft) O 92 1,4 C 10,2 C
21.04.2019 10:26 14,9 C 40 % 1023,0 hPa 0,0 l/m 17,8 km/h (3 Bft) O-NO 70 1,4 C 10,2 C
21.04.2019 10:25 14,9 C 41 % 1023,0 hPa 0,0 l/m 17,8 km/h (3 Bft) O 88 1,8 C 10,2 C
21.04.2019 10:24 14,9 C 40 % 1023,0 hPa 0,0 l/m 14,4 km/h (3 Bft) O 92 1,4 C 11,3 C
21.04.2019 10:23 14,8 C 41 % 1023,0 hPa 0,0 l/m 14,4 km/h (3 Bft) O 87 1,7 C 11,2 C
21.04.2019 10:22 14,8 C 40 % 1023,1 hPa 0,0 l/m 11,3 km/h (2 Bft) O-SO 108 1,3 C 12,3 C
21.04.2019 10:21 14,8 C 39 % 1023,0 hPa 0,0 l/m 14,4 km/h (3 Bft) O 90 1,0 C 11,2 C
21.04.2019 10:20 14,8 C 40 % 1023,0 hPa 0,0 l/m 16,1 km/h (3 Bft) O-NO 76 1,3 C 10,6 C
21.04.2019 10:19 14,7 C 40 % 1023,1 hPa 0,0 l/m 11,3 km/h (2 Bft) O-SO 103 1,2 C 12,2 C
21.04.2019 10:18 14,7 C 40 % 1023,1 hPa 0,0 l/m 9,6 km/h (2 Bft) O 87 1,2 C 13,0 C
21.04.2019 10:16 14,7 C 40 % 1023,1 hPa 0,0 l/m 17,8 km/h (3 Bft) O-NO 74 1,2 C 10,0 C
21.04.2019 10:15 14,6 C 40 % 1023,1 hPa 0,0 l/m 14,4 km/h (3 Bft) O-NO 78 1,2 C 10,9 C
21.04.2019 10:14 14,6 C 40 % 1023,1 hPa 0,0 l/m 14,4 km/h (3 Bft) O-NO 65 1,2 C 10,9 C
21.04.2019 10:13 14,6 C 39 % 1023,1 hPa 0,0 l/m 13,0 km/h (3 Bft) O-NO 65 0,8 C 11,4 C
21.04.2019 10:12 14,7 C 40 % 1023,2 hPa 0,0 l/m 16,1 km/h (3 Bft) O-NO 67 1,2 C 10,5 C
21.04.2019 10:11 14,8 C 40 % 1023,1 hPa 0,0 l/m 16,1 km/h (3 Bft) O-NO 70 1,3 C 10,6 C
21.04.2019 10:10 14,8 C 41 % 1023,2 hPa 0,0 l/m 20,9 km/h (4 Bft) O-NO 73 1,7 C 9,3 C
21.04.2019 10:09 14,8 C 42 % 1023,1 hPa 0,0 l/m 8,0 km/h (2 Bft) O-NO 63 2,0 C 13,9 C
21.04.2019 10:08 14,6 C 42 % 1023,3 hPa 0,0 l/m 4,8 km/h (1 Bft) O-SO 105 1,8 C 14,6 C
21.04.2019 10:07 14,6 C 42 % 1023,2 hPa 0,0 l/m 6,5 km/h (2 Bft) O-NO 58 1,8 C 14,6 C
21.04.2019 10:06 14,5 C 42 % 1023,2 hPa 0,0 l/m 6,5 km/h (2 Bft) O-SO 107 1,7 C 14,5 C
21.04.2019 10:05 14,4 C 42 % 1023,2 hPa 0,0 l/m 9,6 km/h (2 Bft) SO 124 1,7 C 12,6 C
21.04.2019 10:04 14,3 C 41 % 1023,2 hPa 0,0 l/m 13,0 km/h (3 Bft) O 84 1,2 C 11,1 C
21.04.2019 10:03 14,3 C 41 % 1023,2 hPa 0,0 l/m 13,0 km/h (3 Bft) O-SO 111 1,2 C 11,1 C
21.04.2019 10:02 14,3 C 42 % 1023,2 hPa 0,0 l/m 8,0 km/h (2 Bft) O 92 1,6 C 13,4 C
21.04.2019 10:01 14,3 C 42 % 1023,2 hPa 0,0 l/m 13,0 km/h (3 Bft) O-NO 78 1,6 C 11,1 C
21.04.2019 10:00 14,3 C 41 % 1023,2 hPa 0,0 l/m 17,8 km/h (3 Bft) O-SO 121 1,2 C 9,5 C
21.04.2019 09:59 14,3 C 42 % 1023,3 hPa 0,0 l/m 14,4 km/h (3 Bft) O-SO 122 1,6 C 10,6 C
21.04.2019 09:58 14,3 C 42 % 1023,3 hPa 0,0 l/m 14,4 km/h (3 Bft) O 92 1,6 C 10,6 C
21.04.2019 09:57 14,2 C 41 % 1023,3 hPa 0,0 l/m 8,0 km/h (2 Bft) O-NO 63 1,1 C 13,3 C
21.04.2019 09:56 14,1 C 41 % 1023,3 hPa 0,0 l/m 8,0 km/h (2 Bft) O-SO 111 1,1 C 13,2 C
21.04.2019 09:55 14,2 C 41 % 1023,3 hPa 0,0 l/m 14,4 km/h (3 Bft) O-SO 107 1,1 C 10,4 C
21.04.2019 09:54 14,1 C 41 % 1023,3 hPa 0,0 l/m 14,4 km/h (3 Bft) O-SO 123 1,1 C 10,3 C
21.04.2019 09:53 14,1 C 41 % 1023,3 hPa 0,0 l/m 11,3 km/h (2 Bft) SO 144 1,1 C 11,5 C
21.04.2019 09:52 14,2 C 41 % 1023,3 hPa 0,0 l/m 9,6 km/h (2 Bft) SO 132 1,1 C 12,4 C
21.04.2019 09:51 14,1 C 41 % 1023,3 hPa 0,0 l/m 16,1 km/h (3 Bft) SO 126 1,1 C 9,7 C
21.04.2019 09:50 14,1 C 42 % 1023,3 hPa 0,0 l/m 13,0 km/h (3 Bft) O-NO 76 1,4 C 10,8 C
21.04.2019 09:49 14,1 C 42 % 1023,4 hPa 0,0 l/m 11,3 km/h (2 Bft) O-SO 123 1,4 C 11,5 C
21.04.2019 09:48 14,0 C 42 % 1023,3 hPa 0,0 l/m 16,1 km/h (3 Bft) O-NO 71 1,3 C 9,6 C
21.04.2019 09:47 14,0 C 42 % 1023,3 hPa 0,0 l/m 16,1 km/h (3 Bft) O-SO 123 1,3 C 9,6 C
21.04.2019 09:46 14,0 C 41 % 1023,3 hPa 0,0 l/m 17,8 km/h (3 Bft) O 86 1,0 C 9,1 C
21.04.2019 09:45 14,0 C 42 % 1023,4 hPa 0,0 l/m 16,1 km/h (3 Bft) O 92 1,3 C 9,6 C
21.04.2019 09:44 14,0 C 41 % 1023,3 hPa 0,0 l/m 11,3 km/h (2 Bft) O-NO 68 1,0 C 11,4 C
21.04.2019 09:43 13,9 C 43 % 1023,3 hPa 0,0 l/m 17,8 km/h (3 Bft) O 97 1,5 C 9,0 C
21.04.2019 09:42 13,8 C 44 % 1023,4 hPa 0,0 l/m 13,0 km/h (3 Bft) SO 134 1,8 C 10,5 C
21.04.2019 09:41 13,6 C 43 % 1023,4 hPa 0,0 l/m 13,0 km/h (3 Bft) O-SO 116 1,3 C 10,2 C
21.04.2019 09:40 13,6 C 43 % 1023,4 hPa 0,0 l/m 13,0 km/h (3 Bft) O 101 1,3 C 10,2 C
21.04.2019 09:39 13,5 C 44 % 1023,4 hPa 0,0 l/m 19,3 km/h (3 Bft) O-SO 110 1,5 C 8,0 C
21.04.2019 09:38 13,5 C 44 % 1023,4 hPa 0,0 l/m 6,5 km/h (2 Bft) S-SO 150 1,5 C 13,5 C
21.04.2019 09:37 13,4 C 43 % 1023,4 hPa 0,0 l/m 11,3 km/h (2 Bft) O 87 1,1 C 10,7 C
21.04.2019 09:36 13,4 C 44 % 1023,4 hPa 0,0 l/m 13,0 km/h (3 Bft) O-NO 78 1,4 C 10,0 C
21.04.2019 09:35 13,4 C 44 % 1023,4 hPa 0,0 l/m 11,3 km/h (2 Bft) O-NO 61 1,4 C 10,7 C
21.04.2019 09:34 13,3 C 44 % 1023,4 hPa 0,0 l/m 16,1 km/h (3 Bft) O 85 1,3 C 8,7 C
21.04.2019 09:33 13,3 C 44 % 1023,4 hPa 0,0 l/m 16,1 km/h (3 Bft) O-NO 72 1,3 C 8,7 C
21.04.2019 09:32 13,2 C 45 % 1023,4 hPa 0,0 l/m 14,4 km/h (3 Bft) O 91 1,5 C 9,2 C
21.04.2019 09:31 13,1 C 45 % 1023,4 hPa 0,0 l/m 16,1 km/h (3 Bft) O 82 1,4 C 8,5 C
21.04.2019 09:30 13,1 C 45 % 1023,4 hPa 0,0 l/m 11,3 km/h (2 Bft) O 86 1,4 C 10,4 C
21.04.2019 09:29 13,0 C 45 % 1023,4 hPa 0,0 l/m 11,3 km/h (2 Bft) O-NO 75 1,4 C 10,3 C
21.04.2019 09:28 13,0 C 45 % 1023,4 hPa 0,0 l/m 16,1 km/h (3 Bft) O 84 1,4 C 8,4 C
21.04.2019 09:27 13,0 C 44 % 1023,4 hPa 0,0 l/m 16,1 km/h (3 Bft) O 84 1,0 C 8,4 C
21.04.2019 09:26 13,0 C 46 % 1023,4 hPa 0,0 l/m 16,1 km/h (3 Bft) O 86 1,7 C 8,4 C
21.04.2019 09:25 13,0 C 46 % 1023,4 hPa 0,0 l/m 16,1 km/h (3 Bft) O 80 1,7 C 8,4 C
21.04.2019 09:24 12,9 C 46 % 1023,4 hPa 0,0 l/m 8,0 km/h (2 Bft) NO 46 1,6 C 11,9 C
21.04.2019 09:23 12,8 C 47 % 1023,4 hPa 0,0 l/m 11,3 km/h (2 Bft) O-SO 117 1,8 C 10,1 C
21.04.2019 09:22 12,7 C 47 % 1023,5 hPa 0,0 l/m 13,0 km/h (3 Bft) O 100 1,7 C 9,2 C
21.04.2019 09:21 12,6 C 46 % 1023,5 hPa 0,0 l/m 11,3 km/h (2 Bft) O 79 1,3 C 9,8 C
21.04.2019 09:20 12,6 C 47 % 1023,5 hPa 0,0 l/m 14,4 km/h (3 Bft) O-NO 64 1,6 C 8,5 C
21.04.2019 09:19 12,5 C 47 % 1023,6 hPa 0,0 l/m 6,5 km/h (2 Bft) S 190 1,5 C 12,5 C
21.04.2019 09:18 12,4 C 47 % 1023,7 hPa 0,0 l/m 4,8 km/h (1 Bft) SO 138 1,4 C 12,4 C
21.04.2019 09:17 12,4 C 48 % 1023,7 hPa 0,0 l/m 11,3 km/h (2 Bft) O 92 1,7 C 9,6 C
21.04.2019 09:16 12,3 C 49 % 1023,7 hPa 0,0 l/m 13,0 km/h (3 Bft) S-SO 148 1,9 C 8,7 C
21.04.2019 09:15 12,2 C 51 % 1023,6 hPa 0,0 l/m 13,0 km/h (3 Bft) O-SO 116 2,4 C 8,6 C
21.04.2019 09:14 12,1 C 52 % 1023,7 hPa 0,0 l/m 9,6 km/h (2 Bft) O 82 2,5 C 10,1 C
21.04.2019 09:13 12,0 C 52 % 1023,7 hPa 0,0 l/m 6,5 km/h (2 Bft) S-SO 154 2,5 C 12,0 C
21.04.2019 09:12 12,0 C 52 % 1023,7 hPa 0,0 l/m 4,8 km/h (1 Bft) SO 142 2,5 C 12,0 C
21.04.2019 09:11 12,0 C 52 % 1023,7 hPa 0,0 l/m 6,5 km/h (2 Bft) S-SO 155 2,5 C 12,0 C
21.04.2019 09:10 11,9 C 52 % 1023,7 hPa 0,0 l/m 3,1 km/h (1 Bft) SO 135 2,4 C 11,9 C
21.04.2019 09:09 11,9 C 52 % 1023,7 hPa 0,0 l/m 1,7 km/h (1 Bft) SO 136 2,4 C 11,9 C
21.04.2019 09:08 11,8 C 53 % 1023,7 hPa 0,0 l/m 3,1 km/h (1 Bft) O 91 2,5 C 11,8 C
21.04.2019 09:07 11,8 C 53 % 1023,7 hPa 0,0 l/m 4,8 km/h (1 Bft) O 91 2,5 C 11,8 C
21.04.2019 09:06 11,6 C 52 % 1023,7 hPa 0,0 l/m 4,8 km/h (1 Bft) S-SO 152 2,1 C 11,6 C
21.04.2019 09:05 11,6 C 52 % 1023,7 hPa 0,0 l/m 1,7 km/h (1 Bft) O 99 2,1 C 11,6 C
21.04.2019 09:04 11,6 C 52 % 1023,7 hPa 0,0 l/m 6,5 km/h (2 Bft) O-SO 111 2,1 C 11,6 C
21.04.2019 09:03 11,6 C 53 % 1023,6 hPa 0,0 l/m 3,1 km/h (1 Bft) O-SO 115 2,4 C 11,6 C
21.04.2019 09:02 11,6 C 53 % 1023,7 hPa 0,0 l/m 6,5 km/h (2 Bft) O-SO 103 2,4 C 11,6 C
21.04.2019 09:01 11,6 C 53 % 1023,7 hPa 0,0 l/m 9,6 km/h (2 Bft) O 101 2,4 C 9,6 C
21.04.2019 09:00 11,6 C 53 % 1023,7 hPa 0,0 l/m 4,8 km/h (1 Bft) O 91 2,4 C 11,6 C
21.04.2019 08:59 11,5 C 55 % 1023,7 hPa 0,0 l/m 4,8 km/h (1 Bft) S-SO 149 2,8 C 11,5 C
21.04.2019 08:58 11,4 C 56 % 1023,7 hPa 0,0 l/m 1,7 km/h (1 Bft) S-SO 162 2,9 C 11,4 C
21.04.2019 08:57 11,3 C 55 % 1023,7 hPa 0,0 l/m 1,7 km/h (1 Bft) O-SO 121 2,6 C 11,3 C
21.04.2019 08:56 11,2 C 55 % 1023,7 hPa 0,0 l/m 3,1 km/h (1 Bft) O 91 2,5 C 11,2 C
21.04.2019 08:55 11,1 C 54 % 1023,6 hPa 0,0 l/m 4,8 km/h (1 Bft) SO 126 2,2 C 11,1 C
21.04.2019 08:54 11,1 C 54 % 1023,6 hPa 0,0 l/m 3,1 km/h (1 Bft) O-NO 73 2,2 C 11,1 C
21.04.2019 08:53 11,1 C 55 % 1023,7 hPa 0,0 l/m 4,8 km/h (1 Bft) O-SO 112 2,4 C 11,1 C
21.04.2019 08:52 11,2 C 55 % 1023,7 hPa 0,0 l/m 3,1 km/h (1 Bft) O-NO 73 2,5 C 11,2 C
21.04.2019 08:51 11,3 C 55 % 1023,7 hPa 0,0 l/m 4,8 km/h (1 Bft) O-NO 61 2,6 C 11,3 C
21.04.2019 08:50 11,3 C 57 % 1023,6 hPa 0,0 l/m 3,1 km/h (1 Bft) O-NO 65 3,1 C 11,3 C
21.04.2019 08:49 11,2 C 57 % 1023,7 hPa 0,0 l/m 4,8 km/h (1 Bft) O 96 3,0 C 11,2 C
21.04.2019 08:48 11,1 C 58 % 1023,6 hPa 0,0 l/m 0,0 km/h (0 Bft) S-SO 156 3,2 C 11,1 C
21.04.2019 08:47 11,0 C 57 % 1023,7 hPa 0,0 l/m 3,1 km/h (1 Bft) O-SO 111 2,8 C 11,0 C
21.04.2019 08:46 10,9 C 59 % 1023,6 hPa 0,0 l/m 1,7 km/h (1 Bft) SO 144 3,2 C 10,9 C
21.04.2019 08:45 10,8 C 59 % 1023,7 hPa 0,0 l/m 0,0 km/h (0 Bft) SO 138 3,1 C 10,8 C
21.04.2019 08:44 10,8 C 59 % 1023,7 hPa 0,0 l/m 0,0 km/h (0 Bft) S-SW 204 3,1 C 10,8 C
21.04.2019 08:43 10,6 C 59 % 1023,7 hPa 0,0 l/m 1,7 km/h (1 Bft) SW 217 2,9 C 10,6 C
21.04.2019 08:42 10,5 C 59 % 1023,7 hPa 0,0 l/m 0,0 km/h (0 Bft) S-SW 211 2,8 C 10,5 C
21.04.2019 08:41 10,5 C 60 % 1023,7 hPa 0,0 l/m 1,7 km/h (1 Bft) SO 136 3,1 C 10,5 C
21.04.2019 08:40 10,4 C 60 % 1023,7 hPa 0,0 l/m 1,7 km/h (1 Bft) SO 142 3,0 C 10,4 C
21.04.2019 08:39 10,3 C 60 % 1023,7 hPa 0,0 l/m 4,8 km/h (1 Bft) S 173 2,9 C 10,3 C
21.04.2019 08:38 10,2 C 60 % 1023,8 hPa 0,0 l/m 3,1 km/h (1 Bft) SO 128 2,8 C 10,2 C
21.04.2019 08:37 10,1 C 60 % 1023,8 hPa 0,0 l/m 0,0 km/h (0 Bft) O-SO 117 2,7 C 10,1 C
21.04.2019 08:36 10,1 C 59 % 1023,8 hPa 0,0 l/m 0,0 km/h (0 Bft) O-SO 117 2,5 C 10,1 C
21.04.2019 08:35 10,1 C 60 % 1023,8 hPa 0,0 l/m 3,1 km/h (1 Bft) O-SO 119 2,7 C 10,1 C
21.04.2019 08:34 10,1 C 60 % 1023,8 hPa 0,0 l/m 3,1 km/h (1 Bft) S 175 2,7 C 10,1 C
21.04.2019 08:33 10,2 C 59 % 1023,9 hPa 0,0 l/m 1,7 km/h (1 Bft) O-SO 123 2,6 C 10,2 C
21.04.2019 08:32 10,3 C 59 % 1023,7 hPa 0,0 l/m 3,1 km/h (1 Bft) SO 136 2,6 C 10,3 C
21.04.2019 08:31 10,3 C 59 % 1023,8 hPa 0,0 l/m 3,1 km/h (1 Bft) S 175 2,6 C 10,3 C
21.04.2019 08:30 10,3 C 60 % 1023,8 hPa 0,0 l/m 3,1 km/h (1 Bft) S 181 2,9 C 10,3 C
21.04.2019 08:29 10,3 C 60 % 1023,8 hPa 0,0 l/m 3,1 km/h (1 Bft) S-SW 197 2,9 C 10,3 C
21.04.2019 08:28 10,3 C 59 % 1023,8 hPa 0,0 l/m 1,7 km/h (1 Bft) SO 141 2,6 C 10,3 C
21.04.2019 08:27 10,2 C 60 % 1023,9 hPa 0,0 l/m 3,1 km/h (1 Bft) S-SW 202 2,8 C 10,2 C
21.04.2019 08:26 10,1 C 60 % 1023,8 hPa 0,0 l/m 1,7 km/h (1 Bft) S-SO 159 2,7 C 10,1 C
21.04.2019 08:25 10,1 C 59 % 1023,9 hPa 0,0 l/m 0,0 km/h (0 Bft) S-SO 167 2,5 C 10,1 C
21.04.2019 08:24 10,1 C 58 % 1023,9 hPa 0,0 l/m 0,0 km/h (0 Bft) SW 215 2,2 C 10,1 C
21.04.2019 08:23 10,2 C 59 % 1023,9 hPa 0,0 l/m 3,1 km/h (1 Bft) SO 131 2,6 C 10,2 C
21.04.2019 08:22 10,1 C 61 % 1023,9 hPa 0,0 l/m 1,7 km/h (1 Bft) SO 135 2,9 C 10,1 C
21.04.2019 08:21 10,0 C 61 % 1023,8 hPa 0,0 l/m 1,7 km/h (1 Bft) S-SO 149 2,8 C 10,0 C
21.04.2019 08:20 9,9 C 61 % 1023,8 hPa 0,0 l/m 0,0 km/h (0 Bft) S-SO 148 2,7 C 9,9 C
21.04.2019 08:19 9,8 C 62 % 1023,9 hPa 0,0 l/m 1,7 km/h (1 Bft) SO 145 2,9 C 9,8 C
21.04.2019 08:18 9,7 C 62 % 1023,8 hPa 0,0 l/m 0,0 km/h (0 Bft) S-SO 157 2,8 C 9,7 C
21.04.2019 08:17 9,6 C 62 % 1023,8 hPa 0,0 l/m 0,0 km/h (0 Bft) S-SW 210 2,7 C 9,6 C
21.04.2019 08:16 9,5 C 62 % 1023,7 hPa 0,0 l/m 0,0 km/h (0 Bft) S 176 2,6 C 9,5 C
21.04.2019 08:15 9,4 C 62 % 1023,8 hPa 0,0 l/m 0,0 km/h (0 Bft) S 178 2,5 C 9,4 C
21.04.2019 08:14 9,4 C 61 % 1023,8 hPa 0,0 l/m 0,0 km/h (0 Bft) S-SW 207 2,3 C 9,4 C
21.04.2019 08:13 9,4 C 62 % 1023,8 hPa 0,0 l/m 0,0 km/h (0 Bft) S-SW 207 2,5 C 9,4 C
21.04.2019 08:12 9,4 C 62 % 1023,8 hPa 0,0 l/m 1,7 km/h (1 Bft) S-SW 209 2,5 C 9,4 C
21.04.2019 08:11 9,4 C 62 % 1023,8 hPa 0,0 l/m 0,0 km/h (0 Bft) S-SW 207 2,5 C 9,4 C
21.04.2019 08:10 9,4 C 61 % 1023,8 hPa 0,0 l/m 0,0 km/h (0 Bft) SW 235 2,3 C 9,4 C
21.04.2019 08:09 9,4 C 62 % 1023,8 hPa 0,0 l/m 0,0 km/h (0 Bft) SW 235 2,5 C 9,4 C
21.04.2019 08:08 9,4 C 63 % 1023,9 hPa 0,0 l/m 0,0 km/h (0 Bft) SW 218 2,7 C 9,4 C
21.04.2019 08:07 9,3 C 64 % 1023,8 hPa 0,0 l/m 0,0 km/h (0 Bft) S-SW 202 2,8 C 9,3 C
21.04.2019 08:06 9,2 C 64 % 1023,8 hPa 0,0 l/m 0,0 km/h (0 Bft) S-SW 201 2,8 C 9,2 C
21.04.2019 08:05 9,1 C 64 % 1023,8 hPa 0,0 l/m 0,0 km/h (0 Bft) S-SW 201 2,7 C 9,1 C
21.04.2019 08:04 9,1 C 64 % 1023,8 hPa 0,0 l/m 0,0 km/h (0 Bft) S-SO 165 2,7 C 9,1 C
21.04.2019 08:03 9,1 C 64 % 1023,9 hPa 0,0 l/m 0,0 km/h (0 Bft) S-SO 165 2,7 C 9,1 C
21.04.2019 08:02 9,1 C 64 % 1023,9 hPa 0,0 l/m 0,0 km/h (0 Bft) S-SW 200 2,7 C 9,1 C
21.04.2019 08:01 9,0 C 66 % 1023,9 hPa 0,0 l/m 0,0 km/h (0 Bft) S-SW 211 3,0 C 9,0 C
21.04.2019 08:00 8,9 C 66 % 1023,9 hPa 0,0 l/m 0,0 km/h (0 Bft) S 190 2,9 C 8,9 C
21.04.2019 07:59 8,8 C 66 % 1023,9 hPa 0,0 l/m 0,0 km/h (0 Bft) SW 233 2,8 C 8,8 C
21.04.2019 07:58 8,8 C 66 % 1023,9 hPa 0,0 l/m 0,0 km/h (0 Bft) W-SW 243 2,8 C 8,8 C
21.04.2019 07:57 8,6 C 67 % 1023,9 hPa 0,0 l/m 0,0 km/h (0 Bft) SW 221 2,8 C 8,6 C
21.04.2019 07:56 8,5 C 67 % 1023,9 hPa 0,0 l/m 0,0 km/h (0 Bft) SW 215 2,7 C 8,5 C
21.04.2019 07:55 8,4 C 67 % 1023,9 hPa 0,0 l/m 0,0 km/h (0 Bft) SW 214 2,6 C 8,4 C
21.04.2019 07:54 8,3 C 67 % 1023,9 hPa 0,0 l/m 0,0 km/h (0 Bft) SW 215 2,5 C 8,3 C
21.04.2019 07:53 8,2 C 67 % 1023,9 hPa 0,0 l/m 0,0 km/h (0 Bft) SW 214 2,4 C 8,2 C
21.04.2019 07:52 8,1 C 67 % 1023,8 hPa 0,0 l/m 0,0 km/h (0 Bft) S-SW 202 2,3 C 8,1 C
21.04.2019 07:51 8,0 C 68 % 1023,9 hPa 0,0 l/m 0,0 km/h (0 Bft) S-SW 201 2,5 C 8,0 C
21.04.2019 07:50 7,9 C 67 % 1023,8 hPa 0,0 l/m 0,0 km/h (0 Bft) S-SW 198 2,2 C 7,9 C
21.04.2019 07:49 7,9 C 68 % 1023,8 hPa 0,0 l/m 0,0 km/h (0 Bft) S-SW 198 2,4 C 7,9 C
21.04.2019 07:48 7,9 C 68 % 1023,9 hPa 0,0 l/m 0,0 km/h (0 Bft) S-SW 198 2,4 C 7,9 C
21.04.2019 07:47 7,8 C 68 % 1023,9 hPa 0,0 l/m 0,0 km/h (0 Bft) S-SW 197 2,3 C 7,8 C
21.04.2019 07:46 7,8 C 68 % 1023,9 hPa 0,0 l/m 0,0 km/h (0 Bft) S-SW 202 2,3 C 7,8 C
21.04.2019 07:45 7,6 C 68 % 1023,8 hPa 0,0 l/m 0,0 km/h (0 Bft) S-SW 202 2,1 C 7,6 C
21.04.2019 07:44 7,5 C 68 % 1023,9 hPa 0,0 l/m 0,0 km/h (0 Bft) S-SW 202 2,0 C 7,5 C
21.04.2019 07:43 7,5 C 68 % 1023,9 hPa 0,0 l/m 0,0 km/h (0 Bft) S-SW 204 2,0 C 7,5 C
21.04.2019 07:42 7,4 C 68 % 1023,8 hPa 0,0 l/m 0,0 km/h (0 Bft) S-SW 201 1,9 C 7,4 C
21.04.2019 07:41 7,4 C 69 % 1023,9 hPa 0,0 l/m 0,0 km/h (0 Bft) S-SW 200 2,1 C 7,4 C
21.04.2019 07:40 7,3 C 68 % 1023,9 hPa 0,0 l/m 0,0 km/h (0 Bft) S-SW 200 1,8 C 7,3 C
21.04.2019 07:39 7,2 C 68 % 1023,9 hPa 0,0 l/m 0,0 km/h (0 Bft) S-SW 200 1,7 C 7,2 C
21.04.2019 07:38 7,1 C 68 % 1023,9 hPa 0,0 l/m 0,0 km/h (0 Bft) S-SW 200 1,6 C 7,1 C
21.04.2019 07:37 7,1 C 68 % 1023,9 hPa 0,0 l/m 0,0 km/h (0 Bft) S-SW 200 1,6 C 7,1 C
21.04.2019 07:36 7,1 C 69 % 1023,9 hPa 0,0 l/m 0,0 km/h (0 Bft) S-SW 200 1,8 C 7,1 C
21.04.2019 07:35 7,1 C 70 % 1023,8 hPa 0,0 l/m 0,0 km/h (0 Bft) S-SW 193 2,0 C 7,1 C
21.04.2019 07:34 7,0 C 71 % 1023,9 hPa 0,0 l/m 0,0 km/h (0 Bft) S 189 2,1 C 7,0 C
21.04.2019 07:33 6,9 C 71 % 1023,8 hPa 0,0 l/m 0,0 km/h (0 Bft) S 189 2,0 C 6,9 C
21.04.2019 07:32 6,9 C 71 % 1023,8 hPa 0,0 l/m 0,0 km/h (0 Bft) S 189 2,0 C 6,9 C
21.04.2019 07:31 6,9 C 71 % 1023,8 hPa 0,0 l/m 0,0 km/h (0 Bft) S 189 2,0 C 6,9 C
21.04.2019 07:30 6,9 C 71 % 1023,9 hPa 0,0 l/m 0,0 km/h (0 Bft) S 189 2,0 C 6,9 C
21.04.2019 07:29 6,9 C 72 % 1023,8 hPa 0,0 l/m 0,0 km/h (0 Bft) S 189 2,2 C 6,9 C
21.04.2019 07:28 6,8 C 72 % 1023,9 hPa 0,0 l/m 0,0 km/h (0 Bft) S 189 2,1 C 6,8 C
21.04.2019 07:27 6,8 C 72 % 1023,9 hPa 0,0 l/m 0,0 km/h (0 Bft) S-SO 154 2,1 C 6,8 C
21.04.2019 07:26 6,7 C 72 % 1023,9 hPa 0,0 l/m 0,0 km/h (0 Bft) S-SO 154 2,0 C 6,7 C
21.04.2019 07:25 6,6 C 72 % 1023,8 hPa 0,0 l/m 0,0 km/h (0 Bft) S-SO 153 1,9 C 6,6 C
21.04.2019 07:24 6,6 C 72 % 1023,9 hPa 0,0 l/m 0,0 km/h (0 Bft) S-SO 149 1,9 C 6,6 C
21.04.2019 07:23 6,5 C 72 % 1023,8 hPa 0,0 l/m 0,0 km/h (0 Bft) S-SO 149 1,8 C 6,5 C
21.04.2019 07:22 6,5 C 71 % 1023,9 hPa 0,0 l/m 1,7 km/h (1 Bft) S-SO 149 1,6 C 6,5 C
21.04.2019 07:21 6,5 C 72 % 1023,9 hPa 0,0 l/m 0,0 km/h (0 Bft) S-SO 161 1,8 C 6,5 C
21.04.2019 07:20 6,5 C 72 % 1023,9 hPa 0,0 l/m 1,7 km/h (1 Bft) S-SO 157 1,8 C 6,5 C
21.04.2019 07:19 6,4 C 72 % 1023,9 hPa 0,0 l/m 3,1 km/h (1 Bft) SO 142 1,7 C 6,4 C
21.04.2019 07:18 6,3 C 72 % 1023,9 hPa 0,0 l/m 0,0 km/h (0 Bft) S 190 1,6 C 6,3 C
21.04.2019 07:17 6,3 C 72 % 1023,9 hPa 0,0 l/m 0,0 km/h (0 Bft) N-NW 344 1,6 C 6,3 C
21.04.2019 07:16 6,1 C 71 % 1023,9 hPa 0,0 l/m 0,0 km/h (0 Bft) N-NW 344 1,2 C 6,1 C
21.04.2019 07:15 6,0 C 72 % 1023,9 hPa 0,0 l/m 0,0 km/h (0 Bft) N-NW 344 1,3 C 6,0 C
21.04.2019 07:14 5,9 C 72 % 1023,9 hPa 0,0 l/m 0,0 km/h (0 Bft) N-NW 344 1,2 C 5,9 C
21.04.2019 07:13 5,8 C 72 % 1023,9 hPa 0,0 l/m 0,0 km/h (0 Bft) N-NW 344 1,2 C 5,8 C
21.04.2019 07:12 5,8 C 72 % 1023,9 hPa 0,0 l/m 0,0 km/h (0 Bft) N-NW 344 1,2 C 5,8 C
21.04.2019 07:11 5,6 C 72 % 1023,9 hPa 0,0 l/m 0,0 km/h (0 Bft) N-NW 344 1,0 C 5,6 C
21.04.2019 07:10 5,6 C 73 % 1023,9 hPa 0,0 l/m 0,0 km/h (0 Bft) N-NW 344 1,2 C 5,6 C
21.04.2019 07:09 5,5 C 73 % 1023,9 hPa 0,0 l/m 0,0 km/h (0 Bft) N-NW 344 1,1 C 5,5 C
21.04.2019 07:08 5,5 C 73 % 1023,9 hPa 0,0 l/m 0,0 km/h (0 Bft) N-NW 344 1,1 C 5,5 C
21.04.2019 07:07 5,4 C 74 % 1023,8 hPa 0,0 l/m 0,0 km/h (0 Bft) N-NW 344 1,1 C 5,4 C
21.04.2019 07:06 5,3 C 74 % 1023,9 hPa 0,0 l/m 0,0 km/h (0 Bft) N-NW 344 1,0 C 5,3 C
21.04.2019 07:05 5,3 C 74 % 1023,9 hPa 0,0 l/m 0,0 km/h (0 Bft) N-NW 344 1,0 C 5,3 C
21.04.2019 07:04 5,2 C 74 % 1023,9 hPa 0,0 l/m 0,0 km/h (0 Bft) N-NW 344 1,0 C 5,2 C
21.04.2019 07:03 5,2 C 74 % 1023,8 hPa 0,0 l/m 1,7 km/h (1 Bft) N-NW 331 1,0 C 5,2 C
21.04.2019 07:02 5,2 C 74 % 1023,9 hPa 0,0 l/m 0,0 km/h (0 Bft) N-NO 12 1,0 C 5,2 C
21.04.2019 07:01 5,2 C 74 % 1023,9 hPa 0,0 l/m 1,7 km/h (1 Bft) N 11 1,0 C 5,2 C
21.04.2019 07:00 5,1 C 75 % 1023,9 hPa 0,0 l/m 1,7 km/h (1 Bft) N 11 1,0 C 5,1 C
21.04.2019 06:59 5,1 C 75 % 1023,9 hPa 0,0 l/m 0,0 km/h (0 Bft) NW 322 1,0 C 5,1 C
21.04.2019 06:58 5,0 C 75 % 1023,9 hPa 0,0 l/m 0,0 km/h (0 Bft) N 350 0,9 C 5,0 C
21.04.2019 06:57 5,0 C 75 % 1023,9 hPa 0,0 l/m 0,0 km/h (0 Bft) W 265 0,9 C 5,0 C
21.04.2019 06:56 5,0 C 76 % 1023,9 hPa 0,0 l/m 0,0 km/h (0 Bft) W-SW 244 1,1 C 5,0 C
21.04.2019 06:55 4,9 C 76 % 1023,9 hPa 0,0 l/m 0,0 km/h (0 Bft) W-SW 240 1,0 C 4,9 C
21.04.2019 06:54 4,8 C 76 % 1023,9 hPa 0,0 l/m 0,0 km/h (0 Bft) W-SW 239 0,9 C 4,8 C
21.04.2019 06:53 4,8 C 76 % 1023,9 hPa 0,0 l/m 0,0 km/h (0 Bft) W-SW 239 0,9 C 4,8 C
21.04.2019 06:52 4,7 C 76 % 1023,9 hPa 0,0 l/m 0,0 km/h (0 Bft) W-SW 239 0,8 C 4,7 C
21.04.2019 06:51 4,6 C 76 % 1023,9 hPa 0,0 l/m 0,0 km/h (0 Bft) W-SW 239 0,7 C 4,6 C
21.04.2019 06:50 4,6 C 76 % 1023,9 hPa 0,0 l/m 0,0 km/h (0 Bft) W-SW 239 0,7 C 4,6 C
21.04.2019 06:49 4,5 C 76 % 1023,9 hPa 0,0 l/m 0,0 km/h (0 Bft) W-SW 239 0,6 C 4,5 C
21.04.2019 06:48 4,5 C 76 % 1023,9 hPa 0,0 l/m 0,0 km/h (0 Bft) W-SW 239 0,6 C 4,5 C
21.04.2019 06:47 4,5 C 76 % 1023,9 hPa 0,0 l/m 0,0 km/h (0 Bft) W-SW 239 0,6 C 4,5 C
21.04.2019 06:46 4,5 C 76 % 1023,9 hPa 0,0 l/m 0,0 km/h (0 Bft) W-SW 239 0,6 C 4,5 C
21.04.2019 06:45 4,4 C 76 % 1023,9 hPa 0,0 l/m 0,0 km/h (0 Bft) W-SW 239 0,5 C 4,4 C
21.04.2019 06:44 4,4 C 76 % 1024,0 hPa 0,0 l/m 0,0 km/h (0 Bft) W-SW 239 0,5 C 4,4 C
21.04.2019 06:43 4,4 C 76 % 1023,9 hPa 0,0 l/m 0,0 km/h (0 Bft) W-SW 239 0,5 C 4,4 C
21.04.2019 06:42 4,4 C 76 % 1023,9 hPa 0,0 l/m 0,0 km/h (0 Bft) W-SW 239 0,5 C 4,4 C
21.04.2019 06:41 4,3 C 76 % 1023,9 hPa 0,0 l/m 0,0 km/h (0 Bft) W-SW 239 0,5 C 4,3 C
21.04.2019 06:40 4,3 C 76 % 1023,9 hPa 0,0 l/m 0,0 km/h (0 Bft) W-SW 238 0,5 C 4,3 C
21.04.2019 06:39 4,3 C 77 % 1023,9 hPa 0,0 l/m 0,0 km/h (0 Bft) W-SW 238 0,6 C 4,3 C
21.04.2019 06:38 4,2 C 77 % 1023,9 hPa 0,0 l/m 0,0 km/h (0 Bft) W-SW 238 0,5 C 4,2 C
21.04.2019 06:37 4,1 C 77 % 1023,9 hPa 0,0 l/m 0,0 km/h (0 Bft) W-SW 238 0,4 C 4,1 C
21.04.2019 06:36 4,1 C 77 % 1023,9 hPa 0,0 l/m 0,0 km/h (0 Bft) W-SW 238 0,4 C 4,1 C
21.04.2019 06:35 4,1 C 77 % 1023,9 hPa 0,0 l/m 0,0 km/h (0 Bft) W-SW 238 0,4 C 4,1 C
21.04.2019 06:34 4,0 C 77 % 1023,9 hPa 0,0 l/m 0,0 km/h (0 Bft) W-SW 238 0,3 C 4,0 C
21.04.2019 06:33 4,0 C 77 % 1023,9 hPa 0,0 l/m 0,0 km/h (0 Bft) W-SW 238 0,3 C 4,0 C
21.04.2019 06:32 4,0 C 77 % 1023,9 hPa 0,0 l/m 0,0 km/h (0 Bft) W-SW 238 0,3 C 4,0 C
21.04.2019 06:31 4,0 C 77 % 1023,9 hPa 0,0 l/m 0,0 km/h (0 Bft) W-SW 238 0,3 C 4,0 C
21.04.2019 06:30 4,0 C 77 % 1023,9 hPa 0,0 l/m 0,0 km/h (0 Bft) W-SW 238 0,3 C 4,0 C
21.04.2019 06:29 4,0 C 77 % 1023,8 hPa 0,0 l/m 0,0 km/h (0 Bft) W-SW 239 0,3 C 4,0 C
21.04.2019 06:28 4,0 C 77 % 1023,9 hPa 0,0 l/m 0,0 km/h (0 Bft) W-SW 238 0,3 C 4,0 C
21.04.2019 06:27 4,0 C 77 % 1023,8 hPa 0,0 l/m 0,0 km/h (0 Bft) W-SW 238 0,3 C 4,0 C
21.04.2019 06:26 3,9 C 77 % 1023,9 hPa 0,0 l/m 0,0 km/h (0 Bft) W-SW 238 0,2 C 3,9 C
21.04.2019 06:25 3,9 C 77 % 1023,9 hPa 0,0 l/m 0,0 km/h (0 Bft) W-SW 238 0,2 C 3,9 C
21.04.2019 06:24 3,9 C 77 % 1023,8 hPa 0,0 l/m 0,0 km/h (0 Bft) W-SW 238 0,2 C 3,9 C
21.04.2019 06:23 3,9 C 77 % 1023,9 hPa 0,0 l/m 0,0 km/h (0 Bft) W-SW 238 0,2 C 3,9 C
21.04.2019 06:22 3,9 C 77 % 1023,9 hPa 0,0 l/m 0,0 km/h (0 Bft) W-SW 239 0,2 C 3,9 C
21.04.2019 06:21 3,9 C 77 % 1023,9 hPa 0,0 l/m 0,0 km/h (0 Bft) W-SW 238 0,2 C 3,9 C
21.04.2019 06:20 3,9 C 77 % 1023,9 hPa 0,0 l/m 0,0 km/h (0 Bft) W-SW 238 0,2 C 3,9 C
21.04.2019 06:19 3,9 C 77 % 1023,8 hPa 0,0 l/m 0,0 km/h (0 Bft) W-SW 238 0,2 C 3,9 C
21.04.2019 06:18 3,9 C 77 % 1023,9 hPa 0,0 l/m 0,0 km/h (0 Bft) W-SW 238 0,2 C 3,9 C
21.04.2019 06:17 3,9 C 77 % 1023,9 hPa 0,0 l/m 0,0 km/h (0 Bft) W-SW 238 0,2 C 3,9 C
21.04.2019 06:16 3,9 C 77 % 1023,9 hPa 0,0 l/m 0,0 km/h (0 Bft) W-SW 238 0,2 C 3,9 C
21.04.2019 06:15 3,9 C 77 % 1023,9 hPa 0,0 l/m 0,0 km/h (0 Bft) W-SW 238 0,2 C 3,9 C
21.04.2019 06:14 3,9 C 77 % 1023,9 hPa 0,0 l/m 0,0 km/h (0 Bft) W-SW 238 0,2 C 3,9 C
21.04.2019 06:13 3,9 C 77 % 1023,8 hPa 0,0 l/m 0,0 km/h (0 Bft) W-SW 238 0,2 C 3,9 C
21.04.2019 06:12 3,9 C 77 % 1023,9 hPa 0,0 l/m 0,0 km/h (0 Bft) W-SW 238 0,2 C 3,9 C
21.04.2019 06:11 3,9 C 77 % 1023,8 hPa 0,0 l/m 0,0 km/h (0 Bft) W-SW 239 0,2 C 3,9 C
21.04.2019 06:10 3,9 C 77 % 1023,9 hPa 0,0 l/m 0,0 km/h (0 Bft) W-SW 239 0,2 C 3,9 C
21.04.2019 06:09 3,9 C 77 % 1023,9 hPa 0,0 l/m 0,0 km/h (0 Bft) W 259 0,2 C 3,9 C
21.04.2019 06:08 3,9 C 77 % 1023,8 hPa 0,0 l/m 0,0 km/h (0 Bft) W 263 0,2 C 3,9 C
21.04.2019 06:07 3,9 C 77 % 1023,8 hPa 0,0 l/m 0,0 km/h (0 Bft) W 268 0,2 C 3,9 C
21.04.2019 06:06 3,9 C 77 % 1023,9 hPa 0,0 l/m 0,0 km/h (0 Bft) W 268 0,2 C 3,9 C
21.04.2019 06:05 3,9 C 77 % 1023,8 hPa 0,0 l/m 0,0 km/h (0 Bft) W 268 0,2 C 3,9 C
21.04.2019 06:04 4,0 C 77 % 1023,8 hPa 0,0 l/m 0,0 km/h (0 Bft) W 268 0,3 C 4,0 C
21.04.2019 06:03 4,0 C 76 % 1023,9 hPa 0,0 l/m 0,0 km/h (0 Bft) W 269 0,2 C 4,0 C
21.04.2019 06:02 4,0 C 76 % 1023,8 hPa 0,0 l/m 0,0 km/h (0 Bft) W 269 0,2 C 4,0 C
21.04.2019 06:01 4,1 C 76 % 1023,8 hPa 0,0 l/m 0,0 km/h (0 Bft) W 268 0,3 C 4,1 C
21.04.2019 06:00 4,1 C 76 % 1023,9 hPa 0,0 l/m 0,0 km/h (0 Bft) W 269 0,3 C 4,1 C
21.04.2019 05:59 4,1 C 77 % 1023,8 hPa 0,0 l/m 0,0 km/h (0 Bft) W 269 0,4 C 4,1 C
21.04.2019 05:58 4,1 C 77 % 1023,8 hPa 0,0 l/m 1,7 km/h (1 Bft) W 269 0,4 C 4,1 C
21.04.2019 05:57 4,1 C 77 % 1023,8 hPa 0,0 l/m 0,0 km/h (0 Bft) W 269 0,4 C 4,1 C
21.04.2019 05:56 4,1 C 77 % 1023,8 hPa 0,0 l/m 1,7 km/h (1 Bft) W 269 0,4 C 4,1 C
21.04.2019 05:55 4,1 C 77 % 1023,8 hPa 0,0 l/m 1,7 km/h (1 Bft) W-SW 238 0,4 C 4,1 C
21.04.2019 05:54 4,1 C 77 % 1023,8 hPa 0,0 l/m 0,0 km/h (0 Bft) SW 222 0,4 C 4,1 C
21.04.2019 05:53 4,1 C 77 % 1023,8 hPa 0,0 l/m 0,0 km/h (0 Bft) SW 222 0,4 C 4,1 C
21.04.2019 05:52 4,1 C 77 % 1023,8 hPa 0,0 l/m 0,0 km/h (0 Bft) SW 222 0,4 C 4,1 C
21.04.2019 05:51 4,0 C 77 % 1023,7 hPa 0,0 l/m 0,0 km/h (0 Bft) SW 222 0,3 C 4,0 C
21.04.2019 05:50 4,0 C 77 % 1023,8 hPa 0,0 l/m 0,0 km/h (0 Bft) SW 222 0,3 C 4,0 C
21.04.2019 05:49 4,0 C 77 % 1023,8 hPa 0,0 l/m 0,0 km/h (0 Bft) SW 222 0,3 C 4,0 C
21.04.2019 05:48 4,0 C 77 % 1023,8 hPa 0,0 l/m 0,0 km/h (0 Bft) SW 222 0,3 C 4,0 C
21.04.2019 05:47 4,0 C 77 % 1023,8 hPa 0,0 l/m 0,0 km/h (0 Bft) SW 222 0,3 C 4,0 C
21.04.2019 05:46 4,0 C 77 % 1023,8 hPa 0,0 l/m 0,0 km/h (0 Bft) SW 222 0,3 C 4,0 C
21.04.2019 05:45 4,0 C 77 % 1023,8 hPa 0,0 l/m 0,0 km/h (0 Bft) SW 222 0,3 C 4,0 C
21.04.2019 05:44 4,0 C 77 % 1023,8 hPa 0,0 l/m 0,0 km/h (0 Bft) SW 222 0,3 C 4,0 C
21.04.2019 05:43 4,0 C 77 % 1023,8 hPa 0,0 l/m 0,0 km/h (0 Bft) SW 222 0,3 C 4,0 C
21.04.2019 05:42 4,1 C 77 % 1023,8 hPa 0,0 l/m 0,0 km/h (0 Bft) SW 222 0,4 C 4,1 C
21.04.2019 05:41 4,1 C 77 % 1023,8 hPa 0,0 l/m 0,0 km/h (0 Bft) SW 222 0,4 C 4,1 C
21.04.2019 05:40 4,1 C 78 % 1023,8 hPa 0,0 l/m 0,0 km/h (0 Bft) SW 222 0,6 C 4,1 C
21.04.2019 05:39 4,1 C 78 % 1023,7 hPa 0,0 l/m 0,0 km/h (0 Bft) SW 222 0,6 C 4,1 C
21.04.2019 05:38 4,1 C 78 % 1023,7 hPa 0,0 l/m 0,0 km/h (0 Bft) SW 222 0,6 C 4,1 C
21.04.2019 05:37 4,1 C 78 % 1023,7 hPa 0,0 l/m 0,0 km/h (0 Bft) SW 222 0,6 C 4,1 C
21.04.2019 05:36 4,1 C 78 % 1023,7 hPa 0,0 l/m 0,0 km/h (0 Bft) SW 222 0,6 C 4,1 C
21.04.2019 05:35 4,1 C 78 % 1023,6 hPa 0,0 l/m 0,0 km/h (0 Bft) SW 222 0,6 C 4,1 C
21.04.2019 05:34 4,1 C 78 % 1023,6 hPa 0,0 l/m 0,0 km/h (0 Bft) SW 222 0,6 C 4,1 C
21.04.2019 05:33 4,1 C 78 % 1023,7 hPa 0,0 l/m 0,0 km/h (0 Bft) SW 222 0,6 C 4,1 C
21.04.2019 05:32 4,1 C 78 % 1023,7 hPa 0,0 l/m 0,0 km/h (0 Bft) SW 222 0,6 C 4,1 C
21.04.2019 05:31 4,1 C 78 % 1023,7 hPa 0,0 l/m 0,0 km/h (0 Bft) SW 222 0,6 C 4,1 C
21.04.2019 05:30 4,1 C 78 % 1023,6 hPa 0,0 l/m 0,0 km/h (0 Bft) SW 222 0,6 C 4,1 C
21.04.2019 05:29 4,1 C 78 % 1023,6 hPa 0,0 l/m 0,0 km/h (0 Bft) SW 222 0,6 C 4,1 C
21.04.2019 05:28 4,1 C 78 % 1023,6 hPa 0,0 l/m 0,0 km/h (0 Bft) SW 219 0,6 C 4,1 C
21.04.2019 05:27 4,1 C 78 % 1023,6 hPa 0,0 l/m 0,0 km/h (0 Bft) SW 219 0,6 C 4,1 C
21.04.2019 05:26 4,1 C 79 % 1023,6 hPa 0,0 l/m 0,0 km/h (0 Bft) SW 219 0,8 C 4,1 C
21.04.2019 05:25 4,1 C 79 % 1023,6 hPa 0,0 l/m 0,0 km/h (0 Bft) SW 219 0,8 C 4,1 C
21.04.2019 05:24 4,1 C 79 % 1023,5 hPa 0,0 l/m 1,7 km/h (1 Bft) SW 215 0,8 C 4,1 C
21.04.2019 05:23 4,1 C 79 % 1023,5 hPa 0,0 l/m 0,0 km/h (0 Bft) SW 232 0,8 C 4,1 C
21.04.2019 05:22 4,1 C 79 % 1023,6 hPa 0,0 l/m 0,0 km/h (0 Bft) SW 232 0,8 C 4,1 C
21.04.2019 05:21 4,1 C 79 % 1023,7 hPa 0,0 l/m 0,0 km/h (0 Bft) W-SW 239 0,8 C 4,1 C
21.04.2019 05:20 4,1 C 79 % 1023,5 hPa 0,0 l/m 0,0 km/h (0 Bft) W-SW 239 0,8 C 4,1 C
21.04.2019 05:19 4,1 C 79 % 1023,6 hPa 0,0 l/m 0,0 km/h (0 Bft) W-SW 239 0,8 C 4,1 C
21.04.2019 05:18 4,1 C 79 % 1023,5 hPa 0,0 l/m 0,0 km/h (0 Bft) W-SW 239 0,8 C 4,1 C
21.04.2019 05:17 4,1 C 79 % 1023,6 hPa 0,0 l/m 0,0 km/h (0 Bft) W-SW 239 0,8 C 4,1 C
21.04.2019 05:16 4,1 C 80 % 1023,6 hPa 0,0 l/m 1,7 km/h (1 Bft) W-SW 239 1,0 C 4,1 C
21.04.2019 05:15 4,0 C 80 % 1023,6 hPa 0,0 l/m 0,0 km/h (0 Bft) SW 221 0,9 C 4,0 C
21.04.2019 05:14 4,1 C 80 % 1023,5 hPa 0,0 l/m 0,0 km/h (0 Bft) S-SW 205 1,0 C 4,1 C
21.04.2019 05:13 4,1 C 80 % 1023,7 hPa 0,0 l/m 0,0 km/h (0 Bft) S-SW 205 1,0 C 4,1 C
21.04.2019 05:12 4,1 C 80 % 1023,6 hPa 0,0 l/m 0,0 km/h (0 Bft) S-SW 205 1,0 C 4,1 C
21.04.2019 05:11 4,1 C 80 % 1023,6 hPa 0,0 l/m 0,0 km/h (0 Bft) S-SW 205 1,0 C 4,1 C
21.04.2019 05:10 4,1 C 80 % 1023,6 hPa 0,0 l/m 1,7 km/h (1 Bft) S-SW 205 1,0 C 4,1 C
21.04.2019 05:09 4,1 C 79 % 1023,6 hPa 0,0 l/m 0,0 km/h (0 Bft) S-SW 205 0,8 C 4,1 C
21.04.2019 05:08 4,1 C 79 % 1023,6 hPa 0,0 l/m 0,0 km/h (0 Bft) S-SW 205 0,8 C 4,1 C
21.04.2019 05:07 4,1 C 78 % 1023,6 hPa 0,0 l/m 0,0 km/h (0 Bft) S-SW 205 0,6 C 4,1 C
21.04.2019 05:06 4,1 C 78 % 1023,6 hPa 0,0 l/m 1,7 km/h (1 Bft) S-SW 213 0,6 C 4,1 C
21.04.2019 05:05 4,2 C 77 % 1023,6 hPa 0,0 l/m 0,0 km/h (0 Bft) W-SW 242 0,5 C 4,2 C
21.04.2019 05:04 4,2 C 77 % 1023,5 hPa 0,0 l/m 0,0 km/h (0 Bft) W-SW 242 0,5 C 4,2 C
21.04.2019 05:03 4,3 C 76 % 1023,5 hPa 0,0 l/m 0,0 km/h (0 Bft) W-SW 242 0,5 C 4,3 C
21.04.2019 05:02 4,3 C 76 % 1023,5 hPa 0,0 l/m 0,0 km/h (0 Bft) W-SW 242 0,5 C 4,3 C
21.04.2019 05:01 4,3 C 75 % 1023,5 hPa 0,0 l/m 0,0 km/h (0 Bft) W-SW 242 0,3 C 4,3 C
21.04.2019 05:00 4,4 C 74 % 1023,5 hPa 0,0 l/m 0,0 km/h (0 Bft) W-SW 242 0,2 C 4,4 C
21.04.2019 04:59 4,4 C 74 % 1023,4 hPa 0,0 l/m 0,0 km/h (0 Bft) W-SW 242 0,2 C 4,4 C
21.04.2019 04:58 4,5 C 74 % 1023,4 hPa 0,0 l/m 0,0 km/h (0 Bft) W-SW 242 0,3 C 4,5 C
21.04.2019 04:57 4,5 C 74 % 1023,5 hPa 0,0 l/m 0,0 km/h (0 Bft) W-SW 242 0,3 C 4,5 C
21.04.2019 04:56 4,5 C 73 % 1023,6 hPa 0,0 l/m 0,0 km/h (0 Bft) W-SW 242 0,1 C 4,5 C
21.04.2019 04:55 4,5 C 73 % 1023,5 hPa 0,0 l/m 0,0 km/h (0 Bft) W-SW 242 0,1 C 4,5 C
21.04.2019 04:54 4,6 C 73 % 1023,5 hPa 0,0 l/m 0,0 km/h (0 Bft) W-SW 242 0,2 C 4,6 C
21.04.2019 04:53 4,6 C 72 % 1023,6 hPa 0,0 l/m 0,0 km/h (0 Bft) W-SW 242 -0,0 C 4,6 C
21.04.2019 04:52 4,7 C 72 % 1023,5 hPa 0,0 l/m 0,0 km/h (0 Bft) W-SW 242 0,1 C 4,7 C
21.04.2019 04:51 4,7 C 72 % 1023,6 hPa 0,0 l/m 0,0 km/h (0 Bft) W-SW 242 0,1 C 4,7 C
21.04.2019 04:50 4,8 C 72 % 1023,6 hPa 0,0 l/m 0,0 km/h (0 Bft) W-SW 242 0,2 C 4,8 C
21.04.2019 04:49 4,8 C 71 % 1023,7 hPa 0,0 l/m 0,0 km/h (0 Bft) W-SW 242 -0,0 C 4,8 C
21.04.2019 04:48 4,8 C 71 % 1023,7 hPa 0,0 l/m 0,0 km/h (0 Bft) W-SW 242 -0,0 C 4,8 C
21.04.2019 04:47 4,9 C 72 % 1023,6 hPa 0,0 l/m 0,0 km/h (0 Bft) W-SW 242 0,3 C 4,9 C
21.04.2019 04:46 4,9 C 72 % 1023,6 hPa 0,0 l/m 0,0 km/h (0 Bft) W-SW 242 0,3 C 4,9 C
21.04.2019 04:45 4,9 C 72 % 1023,6 hPa 0,0 l/m 0,0 km/h (0 Bft) W-SW 242 0,3 C 4,9 C
21.04.2019 04:44 5,0 C 72 % 1023,6 hPa 0,0 l/m 0,0 km/h (0 Bft) W-SW 242 0,4 C 5,0 C
21.04.2019 04:43 5,0 C 71 % 1023,7 hPa 0,0 l/m 0,0 km/h (0 Bft) W-SW 242 0,2 C 5,0 C
21.04.2019 04:42 5,0 C 71 % 1023,7 hPa 0,0 l/m 0,0 km/h (0 Bft) W-SW 242 0,2 C 5,0 C
21.04.2019 04:41 5,0 C 71 % 1023,8 hPa 0,0 l/m 0,0 km/h (0 Bft) W-SW 242 0,2 C 5,0 C
21.04.2019 04:40 5,1 C 71 % 1023,8 hPa 0,0 l/m 0,0 km/h (0 Bft) W-SW 242 0,3 C 5,1 C
21.04.2019 04:39 5,1 C 70 % 1023,8 hPa 0,0 l/m 0,0 km/h (0 Bft) W-SW 242 0,1 C 5,1 C
21.04.2019 04:38 5,2 C 70 % 1023,8 hPa 0,0 l/m 0,0 km/h (0 Bft) W-SW 242 0,2 C 5,2 C
21.04.2019 04:37 5,2 C 70 % 1023,8 hPa 0,0 l/m 0,0 km/h (0 Bft) W-SW 242 0,2 C 5,2 C
21.04.2019 04:36 5,3 C 70 % 1023,8 hPa 0,0 l/m 0,0 km/h (0 Bft) W-SW 242 0,3 C 5,3 C
21.04.2019 04:35 5,3 C 70 % 1023,7 hPa 0,0 l/m 0,0 km/h (0 Bft) W-SW 242 0,3 C 5,3 C
21.04.2019 04:34 5,3 C 69 % 1023,8 hPa 0,0 l/m 0,0 km/h (0 Bft) W-SW 242 0,1 C 5,3 C
21.04.2019 04:33 5,3 C 69 % 1023,8 hPa 0,0 l/m 0,0 km/h (0 Bft) W-SW 242 0,1 C 5,3 C
21.04.2019 04:32 5,4 C 69 % 1023,8 hPa 0,0 l/m 0,0 km/h (0 Bft) W-SW 242 0,2 C 5,4 C
21.04.2019 04:31 5,4 C 69 % 1023,8 hPa 0,0 l/m 0,0 km/h (0 Bft) W-SW 242 0,2 C 5,4 C
21.04.2019 04:30 5,4 C 69 % 1023,9 hPa 0,0 l/m 0,0 km/h (0 Bft) W-SW 242 0,2 C 5,4 C
21.04.2019 04:29 5,4 C 69 % 1023,7 hPa 0,0 l/m 0,0 km/h (0 Bft) W-SW 242 0,2 C 5,4 C
21.04.2019 04:28 5,4 C 69 % 1023,8 hPa 0,0 l/m 0,0 km/h (0 Bft) W-SW 242 0,2 C 5,4 C
21.04.2019 04:27 5,4 C 69 % 1023,7 hPa 0,0 l/m 0,0 km/h (0 Bft) W-SW 242 0,2 C 5,4 C
21.04.2019 04:26 5,4 C 69 % 1023,7 hPa 0,0 l/m 0,0 km/h (0 Bft) W-SW 242 0,2 C 5,4 C
21.04.2019 04:25 5,4 C 69 % 1023,7 hPa 0,0 l/m 0,0 km/h (0 Bft) W-SW 242 0,2 C 5,4 C
21.04.2019 04:24 5,4 C 70 % 1023,7 hPa 0,0 l/m 0,0 km/h (0 Bft) W-SW 242 0,4 C 5,4 C
21.04.2019 04:23 5,3 C 70 % 1023,7 hPa 0,0 l/m 0,0 km/h (0 Bft) W-SW 242 0,3 C 5,3 C
21.04.2019 04:22 5,3 C 70 % 1023,6 hPa 0,0 l/m 0,0 km/h (0 Bft) W-SW 242 0,3 C 5,3 C
21.04.2019 04:21 5,3 C 70 % 1023,8 hPa 0,0 l/m 0,0 km/h (0 Bft) W-SW 242 0,3 C 5,3 C
21.04.2019 04:20 5,3 C 70 % 1023,7 hPa 0,0 l/m 0,0 km/h (0 Bft) W-SW 242 0,3 C 5,3 C
21.04.2019 04:19 5,3 C 70 % 1023,8 hPa 0,0 l/m 0,0 km/h (0 Bft) W-SW 242 0,3 C 5,3 C
21.04.2019 04:18 5,4 C 69 % 1023,8 hPa 0,0 l/m 0,0 km/h (0 Bft) W-SW 242 0,2 C 5,4 C
21.04.2019 04:17 5,4 C 69 % 1023,7 hPa 0,0 l/m 0,0 km/h (0 Bft) W-SW 242 0,2 C 5,4 C
21.04.2019 04:16 5,4 C 69 % 1023,7 hPa 0,0 l/m 0,0 km/h (0 Bft) W-SW 242 0,2 C 5,4 C
21.04.2019 04:15 5,4 C 69 % 1023,8 hPa 0,0 l/m 0,0 km/h (0 Bft) W-SW 242 0,2 C 5,4 C
21.04.2019 04:14 5,4 C 69 % 1023,8 hPa 0,0 l/m 0,0 km/h (0 Bft) W-SW 242 0,2 C 5,4 C
21.04.2019 04:13 5,4 C 69 % 1023,8 hPa 0,0 l/m 0,0 km/h (0 Bft) W-SW 242 0,2 C 5,4 C
21.04.2019 04:12 5,4 C 70 % 1023,9 hPa 0,0 l/m 0,0 km/h (0 Bft) W-SW 242 0,4 C 5,4 C
21.04.2019 04:11 5,4 C 69 % 1023,9 hPa 0,0 l/m 1,7 km/h (1 Bft) W-SW 242 0,2 C 5,4 C
21.04.2019 04:10 5,4 C 68 % 1023,9 hPa 0,0 l/m 0,0 km/h (0 Bft) W-SW 239 -0,0 C 5,4 C
21.04.2019 04:09 5,4 C 68 % 1023,9 hPa 0,0 l/m 0,0 km/h (0 Bft) W-SW 239 -0,0 C 5,4 C
21.04.2019 04:08 5,5 C 68 % 1023,9 hPa 0,0 l/m 0,0 km/h (0 Bft) W-SW 239 0,1 C 5,5 C
21.04.2019 04:07 5,5 C 68 % 1023,9 hPa 0,0 l/m 0,0 km/h (0 Bft) W-SW 239 0,1 C 5,5 C
21.04.2019 04:06 5,5 C 68 % 1023,9 hPa 0,0 l/m 0,0 km/h (0 Bft) W-SW 239 0,1 C 5,5 C
21.04.2019 04:05 5,6 C 68 % 1023,9 hPa 0,0 l/m 0,0 km/h (0 Bft) W-SW 239 0,2 C 5,6 C
21.04.2019 04:04 5,6 C 68 % 1023,9 hPa 0,0 l/m 0,0 km/h (0 Bft) W-SW 239 0,2 C 5,6 C
21.04.2019 04:03 5,7 C 68 % 1023,8 hPa 0,0 l/m 0,0 km/h (0 Bft) W-SW 239 0,3 C 5,7 C
21.04.2019 04:02 5,7 C 68 % 1023,8 hPa 0,0 l/m 0,0 km/h (0 Bft) W-SW 239 0,3 C 5,7 C
21.04.2019 04:01 5,7 C 67 % 1023,8 hPa 0,0 l/m 0,0 km/h (0 Bft) W-SW 239 0,1 C 5,7 C
21.04.2019 04:00 5,8 C 67 % 1023,9 hPa 0,0 l/m 0,0 km/h (0 Bft) W-SW 239 0,2 C 5,8 C
21.04.2019 03:59 5,8 C 67 % 1023,8 hPa 0,0 l/m 0,0 km/h (0 Bft) W-SW 239 0,2 C 5,8 C
21.04.2019 03:58 5,8 C 67 % 1023,9 hPa 0,0 l/m 0,0 km/h (0 Bft) W-SW 239 0,2 C 5,8 C
21.04.2019 03:57 5,8 C 67 % 1023,9 hPa 0,0 l/m 0,0 km/h (0 Bft) W-SW 239 0,2 C 5,8 C
21.04.2019 03:56 5,8 C 67 % 1023,9 hPa 0,0 l/m 0,0 km/h (0 Bft) W-SW 239 0,2 C 5,8 C
21.04.2019 03:55 5,8 C 67 % 1023,9 hPa 0,0 l/m 0,0 km/h (0 Bft) W-SW 239 0,2 C 5,8 C
21.04.2019 03:54 5,8 C 67 % 1023,9 hPa 0,0 l/m 0,0 km/h (0 Bft) SW 225 0,2 C 5,8 C
21.04.2019 03:53 5,8 C 67 % 1023,9 hPa 0,0 l/m 0,0 km/h (0 Bft) SW 223 0,2 C 5,8 C
21.04.2019 03:52 5,8 C 67 % 1023,9 hPa 0,0 l/m 0,0 km/h (0 Bft) SW 235 0,2 C 5,8 C
21.04.2019 03:51 5,8 C 67 % 1023,9 hPa 0,0 l/m 0,0 km/h (0 Bft) W 259 0,2 C 5,8 C
21.04.2019 03:50 5,8 C 67 % 1023,8 hPa 0,0 l/m 0,0 km/h (0 Bft) W 259 0,2 C 5,8 C
21.04.2019 03:49 5,8 C 67 % 1023,9 hPa 0,0 l/m 0,0 km/h (0 Bft) W 259 0,2 C 5,8 C
21.04.2019 03:48 5,8 C 67 % 1023,9 hPa 0,0 l/m 0,0 km/h (0 Bft) W 259 0,2 C 5,8 C
21.04.2019 03:47 5,8 C 67 % 1023,9 hPa 0,0 l/m 0,0 km/h (0 Bft) W 259 0,2 C 5,8 C
21.04.2019 03:46 5,8 C 67 % 1024,0 hPa 0,0 l/m 0,0 km/h (0 Bft) W 259 0,2 C 5,8 C
21.04.2019 03:45 5,8 C 67 % 1024,0 hPa 0,0 l/m 0,0 km/h (0 Bft) W 259 0,2 C 5,8 C
21.04.2019 03:44 5,8 C 67 % 1024,0 hPa 0,0 l/m 0,0 km/h (0 Bft) W 259 0,2 C 5,8 C
21.04.2019 03:43 5,7 C 68 % 1024,0 hPa 0,0 l/m 1,7 km/h (1 Bft) W 259 0,3 C 5,7 C
21.04.2019 03:42 5,7 C 68 % 1024,0 hPa 0,0 l/m 0,0 km/h (0 Bft) W 259 0,3 C 5,7 C
21.04.2019 03:41 5,7 C 68 % 1024,0 hPa 0,0 l/m 0,0 km/h (0 Bft) W 266 0,3 C 5,7 C
21.04.2019 03:40 5,7 C 67 % 1024,0 hPa 0,0 l/m 0,0 km/h (0 Bft) W 266 0,1 C 5,7 C
21.04.2019 03:39 5,7 C 67 % 1024,0 hPa 0,0 l/m 0,0 km/h (0 Bft) W 270 0,1 C 5,7 C
21.04.2019 03:38 5,8 C 67 % 1024,0 hPa 0,0 l/m 0,0 km/h (0 Bft) W 271 0,2 C 5,8 C
21.04.2019 03:37 5,8 C 67 % 1024,1 hPa 0,0 l/m 0,0 km/h (0 Bft) W 271 0,2 C 5,8 C
21.04.2019 03:36 5,8 C 67 % 1024,0 hPa 0,0 l/m 0,0 km/h (0 Bft) W 271 0,2 C 5,8 C
21.04.2019 03:35 5,8 C 67 % 1024,0 hPa 0,0 l/m 0,0 km/h (0 Bft) W 271 0,2 C 5,8 C
21.04.2019 03:34 5,8 C 66 % 1024,0 hPa 0,0 l/m 0,0 km/h (0 Bft) W 271 -0,0 C 5,8 C
21.04.2019 03:33 5,8 C 66 % 1024,0 hPa 0,0 l/m 0,0 km/h (0 Bft) W 271 -0,0 C 5,8 C
21.04.2019 03:32 5,8 C 65 % 1024,0 hPa 0,0 l/m 0,0 km/h (0 Bft) W 271 -0,3 C 5,8 C
21.04.2019 03:31 5,9 C 64 % 1024,1 hPa 0,0 l/m 0,0 km/h (0 Bft) W 271 -0,4 C 5,9 C
21.04.2019 03:30 5,9 C 64 % 1024,1 hPa 0,0 l/m 0,0 km/h (0 Bft) W 271 -0,4 C 5,9 C
21.04.2019 03:29 5,9 C 64 % 1024,0 hPa 0,0 l/m 0,0 km/h (0 Bft) W 271 -0,4 C 5,9 C
21.04.2019 03:28 6,0 C 64 % 1024,1 hPa 0,0 l/m 0,0 km/h (0 Bft) W 271 -0,3 C 6,0 C
21.04.2019 03:27 6,0 C 64 % 1024,1 hPa 0,0 l/m 0,0 km/h (0 Bft) W 271 -0,3 C 6,0 C
21.04.2019 03:26 6,1 C 64 % 1024,1 hPa 0,0 l/m 0,0 km/h (0 Bft) W 271 -0,2 C 6,1 C
21.04.2019 03:25 6,1 C 64 % 1024,1 hPa 0,0 l/m 0,0 km/h (0 Bft) W 271 -0,2 C 6,1 C
21.04.2019 03:24 6,1 C 64 % 1024,1 hPa 0,0 l/m 0,0 km/h (0 Bft) W 271 -0,2 C 6,1 C
21.04.2019 03:23 6,1 C 64 % 1024,1 hPa 0,0 l/m 0,0 km/h (0 Bft) W 271 -0,2 C 6,1 C
21.04.2019 03:22 6,2 C 64 % 1024,2 hPa 0,0 l/m 0,0 km/h (0 Bft) W 271 -0,1 C 6,2 C
21.04.2019 03:21 6,2 C 64 % 1024,1 hPa 0,0 l/m 0,0 km/h (0 Bft) W 271 -0,1 C 6,2 C
21.04.2019 03:20 6,3 C 63 % 1024,2 hPa 0,0 l/m 0,0 km/h (0 Bft) W 271 -0,2 C 6,3 C
21.04.2019 03:19 6,3 C 63 % 1024,1 hPa 0,0 l/m 0,0 km/h (0 Bft) W 271 -0,2 C 6,3 C
21.04.2019 03:18 6,3 C 63 % 1024,2 hPa 0,0 l/m 0,0 km/h (0 Bft) W 271 -0,2 C 6,3 C
21.04.2019 03:17 6,3 C 63 % 1024,1 hPa 0,0 l/m 0,0 km/h (0 Bft) W 271 -0,2 C 6,3 C
21.04.2019 03:16 6,4 C 63 % 1024,1 hPa 0,0 l/m 0,0 km/h (0 Bft) W 271 -0,1 C 6,4 C
21.04.2019 03:15 6,4 C 63 % 1024,2 hPa 0,0 l/m 0,0 km/h (0 Bft) W 271 -0,1 C 6,4 C
21.04.2019 03:14 6,4 C 63 % 1024,1 hPa 0,0 l/m 0,0 km/h (0 Bft) W 271 -0,1 C 6,4 C
21.04.2019 03:13 6,4 C 63 % 1024,1 hPa 0,0 l/m 0,0 km/h (0 Bft) W 271 -0,1 C 6,4 C
21.04.2019 03:12 6,4 C 63 % 1024,2 hPa 0,0 l/m 0,0 km/h (0 Bft) W 271 -0,1 C 6,4 C
21.04.2019 03:11 6,4 C 63 % 1024,1 hPa 0,0 l/m 0,0 km/h (0 Bft) W 271 -0,1 C 6,4 C
21.04.2019 03:10 6,4 C 62 % 1024,2 hPa 0,0 l/m 0,0 km/h (0 Bft) W 271 -0,3 C 6,4 C
21.04.2019 03:09 6,5 C 62 % 1024,1 hPa 0,0 l/m 0,0 km/h (0 Bft) W 271 -0,2 C 6,5 C
21.04.2019 03:08 6,5 C 62 % 1024,2 hPa 0,0 l/m 0,0 km/h (0 Bft) W 271 -0,2 C 6,5 C
21.04.2019 03:07 6,5 C 62 % 1024,1 hPa 0,0 l/m 0,0 km/h (0 Bft) W 271 -0,2 C 6,5 C
21.04.2019 03:06 6,5 C 62 % 1024,2 hPa 0,0 l/m 0,0 km/h (0 Bft) W 271 -0,2 C 6,5 C
21.04.2019 03:05 6,6 C 62 % 1024,1 hPa 0,0 l/m 0,0 km/h (0 Bft) W 271 -0,1 C 6,6 C
21.04.2019 03:04 6,6 C 62 % 1024,2 hPa 0,0 l/m 0,0 km/h (0 Bft) W 271 -0,1 C 6,6 C
21.04.2019 03:03 6,6 C 61 % 1024,1 hPa 0,0 l/m 0,0 km/h (0 Bft) W 271 -0,4 C 6,6 C
21.04.2019 03:02 6,6 C 61 % 1024,2 hPa 0,0 l/m 0,0 km/h (0 Bft) W 271 -0,4 C 6,6 C
21.04.2019 03:01 6,7 C 61 % 1024,2 hPa 0,0 l/m 0,0 km/h (0 Bft) W 271 -0,3 C 6,7 C
21.04.2019 03:00 6,7 C 61 % 1024,2 hPa 0,0 l/m 0,0 km/h (0 Bft) W 271 -0,3 C 6,7 C
21.04.2019 02:59 6,7 C 61 % 1024,2 hPa 0,0 l/m 0,0 km/h (0 Bft) W 271 -0,3 C 6,7 C
21.04.2019 02:58 6,7 C 61 % 1024,1 hPa 0,0 l/m 0,0 km/h (0 Bft) W 271 -0,3 C 6,7 C
21.04.2019 02:57 6,7 C 61 % 1024,2 hPa 0,0 l/m 0,0 km/h (0 Bft) W 271 -0,3 C 6,7 C
21.04.2019 02:56 6,7 C 61 % 1024,1 hPa 0,0 l/m 0,0 km/h (0 Bft) W 271 -0,3 C 6,7 C
21.04.2019 02:55 6,6 C 61 % 1024,1 hPa 0,0 l/m 0,0 km/h (0 Bft) W 271 -0,4 C 6,6 C
21.04.2019 02:54 6,6 C 61 % 1024,1 hPa 0,0 l/m 0,0 km/h (0 Bft) W 271 -0,4 C 6,6 C
21.04.2019 02:53 6,6 C 61 % 1024,2 hPa 0,0 l/m 0,0 km/h (0 Bft) W 271 -0,4 C 6,6 C
21.04.2019 02:52 6,6 C 61 % 1024,2 hPa 0,0 l/m 1,7 km/h (1 Bft) W 271 -0,4 C 6,6 C
21.04.2019 02:51 6,6 C 61 % 1024,2 hPa 0,0 l/m 1,7 km/h (1 Bft) W 273 -0,4 C 6,6 C
21.04.2019 02:50 6,5 C 61 % 1024,3 hPa 0,0 l/m 0,0 km/h (0 Bft) W 273 -0,5 C 6,5 C
21.04.2019 02:49 6,5 C 61 % 1024,2 hPa 0,0 l/m 1,7 km/h (1 Bft) W 272 -0,5 C 6,5 C
21.04.2019 02:48 6,5 C 61 % 1024,3 hPa 0,0 l/m 0,0 km/h (0 Bft) W-SW 254 -0,5 C 6,5 C
21.04.2019 02:47 6,5 C 61 % 1024,3 hPa 0,0 l/m 1,7 km/h (1 Bft) W-SW 258 -0,5 C 6,5 C
21.04.2019 02:46 6,5 C 61 % 1024,3 hPa 0,0 l/m 1,7 km/h (1 Bft) W-SW 249 -0,5 C 6,5 C
21.04.2019 02:45 6,5 C 61 % 1024,2 hPa 0,0 l/m 0,0 km/h (0 Bft) W-SW 244 -0,5 C 6,5 C
21.04.2019 02:44 6,5 C 61 % 1024,3 hPa 0,0 l/m 0,0 km/h (0 Bft) W-SW 244 -0,5 C 6,5 C
21.04.2019 02:43 6,5 C 61 % 1024,2 hPa 0,0 l/m 0,0 km/h (0 Bft) W-SW 244 -0,5 C 6,5 C
21.04.2019 02:42 6,6 C 60 % 1024,3 hPa 0,0 l/m 0,0 km/h (0 Bft) W-SW 249 -0,6 C 6,6 C
21.04.2019 02:41 6,6 C 60 % 1024,3 hPa 0,0 l/m 0,0 km/h (0 Bft) W-SW 251 -0,6 C 6,6 C
21.04.2019 02:40 6,7 C 60 % 1024,3 hPa 0,0 l/m 0,0 km/h (0 Bft) W 265 -0,5 C 6,7 C
21.04.2019 02:39 6,8 C 60 % 1024,2 hPa 0,0 l/m 0,0 km/h (0 Bft) W-SW 240 -0,4 C 6,8 C
21.04.2019 02:38 6,8 C 59 % 1024,3 hPa 0,0 l/m 0,0 km/h (0 Bft) W-SW 239 -0,6 C 6,8 C
21.04.2019 02:37 6,9 C 59 % 1024,3 hPa 0,0 l/m 0,0 km/h (0 Bft) W-SW 238 -0,5 C 6,9 C
21.04.2019 02:36 7,0 C 59 % 1024,3 hPa 0,0 l/m 0,0 km/h (0 Bft) W-SW 238 -0,5 C 7,0 C
21.04.2019 02:35 7,0 C 59 % 1024,3 hPa 0,0 l/m 0,0 km/h (0 Bft) W-SW 253 -0,5 C 7,0 C
21.04.2019 02:34 7,1 C 59 % 1024,3 hPa 0,0 l/m 0,0 km/h (0 Bft) W-SW 253 -0,4 C 7,1 C
21.04.2019 02:33 7,1 C 59 % 1024,3 hPa 0,0 l/m 0,0 km/h (0 Bft) W-SW 252 -0,4 C 7,1 C
21.04.2019 02:31 7,2 C 59 % 1024,3 hPa 0,0 l/m 1,7 km/h (1 Bft) W-SW 242 -0,3 C 7,2 C
21.04.2019 02:30 7,3 C 59 % 1024,3 hPa 0,0 l/m 0,0 km/h (0 Bft) W-NW 297 -0,2 C 7,3 C
21.04.2019 02:29 7,3 C 59 % 1024,3 hPa 0,0 l/m 0,0 km/h (0 Bft) W-NW 298 -0,2 C 7,3 C
21.04.2019 02:28 7,3 C 59 % 1024,4 hPa 0,0 l/m 0,0 km/h (0 Bft) W-NW 299 -0,2 C 7,3 C
21.04.2019 02:27 7,3 C 59 % 1024,3 hPa 0,0 l/m 0,0 km/h (0 Bft) W-NW 300 -0,2 C 7,3 C
21.04.2019 02:26 7,4 C 59 % 1024,3 hPa 0,0 l/m 0,0 km/h (0 Bft) W-NW 300 -0,1 C 7,4 C
21.04.2019 02:25 7,4 C 59 % 1024,3 hPa 0,0 l/m 0,0 km/h (0 Bft) W-NW 302 -0,1 C 7,4 C
21.04.2019 02:24 7,4 C 59 % 1024,4 hPa 0,0 l/m 0,0 km/h (0 Bft) N-NW 344 -0,1 C 7,4 C
21.04.2019 02:23 7,5 C 58 % 1024,3 hPa 0,0 l/m 0,0 km/h (0 Bft) N-NW 344 -0,2 C 7,5 C
21.04.2019 02:22 7,5 C 58 % 1024,4 hPa 0,0 l/m 0,0 km/h (0 Bft) N-NW 344 -0,2 C 7,5 C
21.04.2019 02:21 7,6 C 58 % 1024,4 hPa 0,0 l/m 0,0 km/h (0 Bft) N-NW 344 -0,1 C 7,6 C
21.04.2019 02:20 7,6 C 58 % 1024,4 hPa 0,0 l/m 0,0 km/h (0 Bft) N-NW 344 -0,1 C 7,6 C
21.04.2019 02:19 7,6 C 57 % 1024,3 hPa 0,0 l/m 0,0 km/h (0 Bft) N-NW 344 -0,4 C 7,6 C
21.04.2019 02:18 7,7 C 57 % 1024,4 hPa 0,0 l/m 0,0 km/h (0 Bft) N-NW 344 -0,3 C 7,7 C
21.04.2019 02:17 7,7 C 57 % 1024,4 hPa 0,0 l/m 0,0 km/h (0 Bft) N-NW 344 -0,3 C 7,7 C
21.04.2019 02:16 7,7 C 57 % 1024,4 hPa 0,0 l/m 0,0 km/h (0 Bft) N-NW 344 -0,3 C 7,7 C
21.04.2019 02:15 7,6 C 57 % 1024,4 hPa 0,0 l/m 0,0 km/h (0 Bft) N-NW 344 -0,4 C 7,6 C
21.04.2019 02:14 7,6 C 57 % 1024,3 hPa 0,0 l/m 0,0 km/h (0 Bft) N-NW 344 -0,4 C 7,6 C
21.04.2019 02:13 7,6 C 57 % 1024,4 hPa 0,0 l/m 0,0 km/h (0 Bft) N-NW 344 -0,4 C 7,6 C
21.04.2019 02:12 7,6 C 57 % 1024,4 hPa 0,0 l/m 0,0 km/h (0 Bft) N-NW 344 -0,4 C 7,6 C
21.04.2019 02:11 7,6 C 57 % 1024,4 hPa 0,0 l/m 0,0 km/h (0 Bft) N-NW 344 -0,4 C 7,6 C
21.04.2019 02:10 7,6 C 57 % 1024,4 hPa 0,0 l/m 0,0 km/h (0 Bft) N-NW 344 -0,4 C 7,6 C
21.04.2019 02:08 7,7 C 57 % 1024,4 hPa 0,0 l/m 0,0 km/h (0 Bft) N-NW 344 -0,3 C 7,7 C
21.04.2019 02:07 7,8 C 56 % 1024,3 hPa 0,0 l/m 0,0 km/h (0 Bft) N-NW 344 -0,4 C 7,8 C
21.04.2019 02:06 7,8 C 55 % 1024,5 hPa 0,0 l/m 0,0 km/h (0 Bft) N-NW 344 -0,7 C 7,8 C
21.04.2019 02:05 7,9 C 55 % 1024,4 hPa 0,0 l/m 0,0 km/h (0 Bft) N-NW 344 -0,6 C 7,9 C
21.04.2019 02:04 8,0 C 55 % 1024,4 hPa 0,0 l/m 0,0 km/h (0 Bft) N-NW 344 -0,5 C 8,0 C
21.04.2019 02:03 8,0 C 55 % 1024,4 hPa 0,0 l/m 0,0 km/h (0 Bft) N-NW 344 -0,5 C 8,0 C
21.04.2019 02:02 8,1 C 55 % 1024,4 hPa 0,0 l/m 0,0 km/h (0 Bft) N-NW 344 -0,4 C 8,1 C
21.04.2019 02:01 8,1 C 55 % 1024,5 hPa 0,0 l/m 0,0 km/h (0 Bft) N-NW 344 -0,4 C 8,1 C
21.04.2019 02:00 8,1 C 55 % 1024,4 hPa 0,0 l/m 0,0 km/h (0 Bft) N-NW 344 -0,4 C 8,1 C
21.04.2019 01:59 8,1 C 55 % 1024,4 hPa 0,0 l/m 0,0 km/h (0 Bft) N-NW 344 -0,4 C 8,1 C
21.04.2019 01:58 8,1 C 55 % 1024,5 hPa 0,0 l/m 0,0 km/h (0 Bft) N-NW 344 -0,4 C 8,1 C
21.04.2019 01:57 8,2 C 54 % 1024,5 hPa 0,0 l/m 0,0 km/h (0 Bft) N-NW 344 -0,5 C 8,2 C
21.04.2019 01:56 8,2 C 54 % 1024,5 hPa 0,0 l/m 0,0 km/h (0 Bft) N-NW 344 -0,5 C 8,2 C
21.04.2019 01:55 8,3 C 54 % 1024,5 hPa 0,0 l/m 0,0 km/h (0 Bft) N-NW 344 -0,5 C 8,3 C
21.04.2019 01:54 8,4 C 53 % 1024,5 hPa 0,0 l/m 0,0 km/h (0 Bft) N-NW 344 -0,6 C 8,4 C
21.04.2019 01:53 8,5 C 53 % 1024,5 hPa 0,0 l/m 0,0 km/h (0 Bft) N-NW 344 -0,5 C 8,5 C
21.04.2019 01:52 8,5 C 53 % 1024,5 hPa 0,0 l/m 0,0 km/h (0 Bft) N-NW 344 -0,5 C 8,5 C
21.04.2019 01:51 8,6 C 52 % 1024,5 hPa 0,0 l/m 0,0 km/h (0 Bft) N-NW 344 -0,7 C 8,6 C
21.04.2019 01:50 8,7 C 52 % 1024,5 hPa 0,0 l/m 0,0 km/h (0 Bft) N-NW 344 -0,6 C 8,7 C
21.04.2019 01:49 8,8 C 51 % 1024,5 hPa 0,0 l/m 0,0 km/h (0 Bft) N-NW 344 -0,8 C 8,8 C
21.04.2019 01:48 8,9 C 50 % 1024,5 hPa 0,0 l/m 0,0 km/h (0 Bft) N-NW 344 -0,9 C 8,9 C
21.04.2019 01:47 9,0 C 50 % 1024,5 hPa 0,0 l/m 0,0 km/h (0 Bft) N-NW 344 -0,9 C 9,0 C
21.04.2019 01:46 9,1 C 50 % 1024,5 hPa 0,0 l/m 0,0 km/h (0 Bft) N-NW 344 -0,8 C 9,1 C
21.04.2019 01:45 9,2 C 49 % 1024,5 hPa 0,0 l/m 0,0 km/h (0 Bft) N-NW 344 -0,9 C 9,2 C
21.04.2019 01:44 9,3 C 49 % 1024,5 hPa 0,0 l/m 0,0 km/h (0 Bft) N-NW 344 -0,9 C 9,3 C
21.04.2019 01:43 9,4 C 49 % 1024,6 hPa 0,0 l/m 0,0 km/h (0 Bft) N-NW 344 -0,8 C 9,4 C
21.04.2019 01:42 9,5 C 49 % 1024,6 hPa 0,0 l/m 0,0 km/h (0 Bft) N-NW 344 -0,7 C 9,5 C
21.04.2019 01:41 9,5 C 48 % 1024,6 hPa 0,0 l/m 0,0 km/h (0 Bft) N-NW 344 -1,0 C 9,5 C
21.04.2019 01:40 9,6 C 48 % 1024,5 hPa 0,0 l/m 0,0 km/h (0 Bft) N-NW 344 -0,9 C 9,6 C
21.04.2019 01:38 9,8 C 48 % 1024,6 hPa 0,0 l/m 0,0 km/h (0 Bft) N-NW 344 -0,7 C 9,8 C
21.04.2019 01:37 9,9 C 47 % 1024,5 hPa 0,0 l/m 0,0 km/h (0 Bft) N-NW 344 -0,9 C 9,9 C
21.04.2019 01:36 10,0 C 47 % 1024,6 hPa 0,0 l/m 0,0 km/h (0 Bft) N-NW 344 -0,8 C 10,0 C
21.04.2019 01:35 10,0 C 47 % 1024,6 hPa 0,0 l/m 0,0 km/h (0 Bft) N-NW 344 -0,8 C 10,0 C
21.04.2019 01:34 10,1 C 46 % 1024,6 hPa 0,0 l/m 0,0 km/h (0 Bft) N-NW 344 -1,0 C 10,1 C
21.04.2019 01:33 10,1 C 46 % 1024,6 hPa 0,0 l/m 0,0 km/h (0 Bft) N-NW 344 -1,0 C 10,1 C
21.04.2019 01:32 10,2 C 46 % 1024,6 hPa 0,0 l/m 0,0 km/h (0 Bft) N-NW 344 -0,9 C 10,2 C
21.04.2019 01:31 10,3 C 46 % 1024,6 hPa 0,0 l/m 0,0 km/h (0 Bft) N-NW 344 -0,8 C 10,3 C
21.04.2019 01:30 10,4 C 45 % 1024,6 hPa 0,0 l/m 0,0 km/h (0 Bft) N-NW 344 -1,0 C 10,4 C
21.04.2019 01:29 10,5 C 45 % 1024,6 hPa 0,0 l/m 0,0 km/h (0 Bft) N-NW 344 -0,9 C 10,5 C
21.04.2019 01:28 10,5 C 45 % 1024,6 hPa 0,0 l/m 0,0 km/h (0 Bft) N-NW 344 -0,9 C 10,5 C
21.04.2019 01:27 10,7 C 44 % 1024,6 hPa 0,0 l/m 0,0 km/h (0 Bft) N-NW 344 -1,0 C 10,7 C
21.04.2019 01:26 10,7 C 44 % 1024,7 hPa 0,0 l/m 0,0 km/h (0 Bft) N-NW 344 -1,0 C 10,7 C
21.04.2019 01:25 10,8 C 44 % 1024,6 hPa 0,0 l/m 0,0 km/h (0 Bft) N-NW 344 -1,0 C 10,8 C
21.04.2019 01:23 10,8 C 44 % 1024,6 hPa 0,0 l/m 1,7 km/h (1 Bft) N-NW 344 -1,0 C 10,8 C
21.04.2019 01:22 10,9 C 43 % 1024,6 hPa 0,0 l/m 0,0 km/h (0 Bft) N-NW 344 -1,2 C 10,9 C
21.04.2019 01:21 10,9 C 43 % 1024,6 hPa 0,0 l/m 0,0 km/h (0 Bft) N-NW 344 -1,2 C 10,9 C
21.04.2019 01:20 11,0 C 43 % 1024,7 hPa 0,0 l/m 0,0 km/h (0 Bft) N-NW 344 -1,1 C 11,0 C
21.04.2019 01:19 11,0 C 43 % 1024,7 hPa 0,0 l/m 0,0 km/h (0 Bft) N-NW 344 -1,1 C 11,0 C
21.04.2019 01:18 11,1 C 43 % 1024,7 hPa 0,0 l/m 0,0 km/h (0 Bft) N-NW 344 -1,0 C 11,1 C
21.04.2019 01:17 11,1 C 42 % 1024,6 hPa 0,0 l/m 0,0 km/h (0 Bft) N-NW 344 -1,3 C 11,1 C
21.04.2019 01:16 11,2 C 43 % 1024,7 hPa 0,0 l/m 0,0 km/h (0 Bft) N-NW 344 -0,9 C 11,2 C
21.04.2019 01:15 11,2 C 42 % 1024,7 hPa 0,0 l/m 0,0 km/h (0 Bft) N-NW 344 -1,2 C 11,2 C
21.04.2019 01:14 11,3 C 42 % 1024,7 hPa 0,0 l/m 1,7 km/h (1 Bft) N-NW 343 -1,1 C 11,3 C
21.04.2019 01:13 11,4 C 42 % 1024,8 hPa 0,0 l/m 1,7 km/h (1 Bft) NW 305 -1,0 C 11,4 C
21.04.2019 01:12 11,4 C 42 % 1024,6 hPa 0,0 l/m 0,0 km/h (0 Bft) W-SW 242 -1,0 C 11,4 C
21.04.2019 01:11 11,5 C 42 % 1024,8 hPa 0,0 l/m 0,0 km/h (0 Bft) W-SW 242 -1,0 C 11,5 C
21.04.2019 01:10 11,5 C 41 % 1024,7 hPa 0,0 l/m 0,0 km/h (0 Bft) W-SW 242 -1,3 C 11,5 C
21.04.2019 01:09 11,5 C 41 % 1024,6 hPa 0,0 l/m 0,0 km/h (0 Bft) W-SW 242 -1,3 C 11,5 C
21.04.2019 01:08 11,5 C 42 % 1024,6 hPa 0,0 l/m 0,0 km/h (0 Bft) W-SW 242 -1,0 C 11,5 C
21.04.2019 01:07 11,5 C 42 % 1024,7 hPa 0,0 l/m 0,0 km/h (0 Bft) W-SW 242 -1,0 C 11,5 C
21.04.2019 01:06 11,5 C 41 % 1024,6 hPa 0,0 l/m 0,0 km/h (0 Bft) W-SW 242 -1,3 C 11,5 C
21.04.2019 01:05 11,5 C 41 % 1024,7 hPa 0,0 l/m 0,0 km/h (0 Bft) W-SW 242 -1,3 C 11,5 C
21.04.2019 01:04 11,5 C 42 % 1024,8 hPa 0,0 l/m 1,7 km/h (1 Bft) W-SW 242 -1,0 C 11,5 C
21.04.2019 01:03 11,5 C 42 % 1024,7 hPa 0,0 l/m 0,0 km/h (0 Bft) W-SW 242 -1,0 C 11,5 C
21.04.2019 01:02 11,5 C 41 % 1024,7 hPa 0,0 l/m 0,0 km/h (0 Bft) W-SW 242 -1,3 C 11,5 C
21.04.2019 01:01 11,6 C 41 % 1024,7 hPa 0,0 l/m 0,0 km/h (0 Bft) W-SW 242 -1,2 C 11,6 C
21.04.2019 01:00 11,5 C 41 % 1024,7 hPa 0,0 l/m 0,0 km/h (0 Bft) W-SW 242 -1,3 C 11,5 C
21.04.2019 00:59 11,5 C 42 % 1024,9 hPa 0,0 l/m 0,0 km/h (0 Bft) W-SW 242 -1,0 C 11,5 C
21.04.2019 00:58 11,5 C 41 % 1024,7 hPa 0,0 l/m 1,7 km/h (1 Bft) W-SW 242 -1,3 C 11,5 C
21.04.2019 00:57 11,5 C 41 % 1024,8 hPa 0,0 l/m 1,7 km/h (1 Bft) W-SW 242 -1,3 C 11,5 C
21.04.2019 00:56 11,6 C 41 % 1024,8 hPa 0,0 l/m 0,0 km/h (0 Bft) W-SW 242 -1,2 C 11,6 C
21.04.2019 00:55 11,6 C 41 % 1024,9 hPa 0,0 l/m 1,7 km/h (1 Bft) W-SW 242 -1,2 C 11,6 C
21.04.2019 00:54 11,6 C 41 % 1024,8 hPa 0,0 l/m 1,7 km/h (1 Bft) W-SW 242 -1,2 C 11,6 C
21.04.2019 00:53 11,6 C 41 % 1024,8 hPa 0,0 l/m 1,7 km/h (1 Bft) W-SW 242 -1,2 C 11,6 C
21.04.2019 00:52 11,6 C 41 % 1024,9 hPa 0,0 l/m 0,0 km/h (0 Bft) W-SW 242 -1,2 C 11,6 C
21.04.2019 00:51 11,5 C 41 % 1024,9 hPa 0,0 l/m 0,0 km/h (0 Bft) W-SW 242 -1,3 C 11,5 C
21.04.2019 00:50 11,5 C 41 % 1024,9 hPa 0,0 l/m 0,0 km/h (0 Bft) W-SW 242 -1,3 C 11,5 C
21.04.2019 00:49 11,5 C 41 % 1024,9 hPa 0,0 l/m 0,0 km/h (0 Bft) W-SW 242 -1,3 C 11,5 C
21.04.2019 00:48 11,4 C 41 % 1024,9 hPa 0,0 l/m 0,0 km/h (0 Bft) W-SW 242 -1,4 C 11,4 C
21.04.2019 00:47 11,4 C 42 % 1024,9 hPa 0,0 l/m 0,0 km/h (0 Bft) W-SW 242 -1,0 C 11,4 C
21.04.2019 00:46 11,4 C 42 % 1024,9 hPa 0,0 l/m 0,0 km/h (0 Bft) W-SW 242 -1,0 C 11,4 C
21.04.2019 00:45 11,4 C 42 % 1024,9 hPa 0,0 l/m 1,7 km/h (1 Bft) W-SW 242 -1,0 C 11,4 C
21.04.2019 00:44 11,5 C 42 % 1024,9 hPa 0,0 l/m 1,7 km/h (1 Bft) SO 138 -1,0 C 11,5 C
21.04.2019 00:43 11,5 C 42 % 1024,9 hPa 0,0 l/m 1,7 km/h (1 Bft) SO 138 -1,0 C 11,5 C
21.04.2019 00:42 11,6 C 42 % 1024,9 hPa 0,0 l/m 1,7 km/h (1 Bft) SO 138 -0,9 C 11,6 C
21.04.2019 00:41 11,7 C 42 % 1024,9 hPa 0,0 l/m 0,0 km/h (0 Bft) SO 138 -0,8 C 11,7 C
21.04.2019 00:40 11,8 C 42 % 1024,9 hPa 0,0 l/m 0,0 km/h (0 Bft) SO 138 -0,7 C 11,8 C
21.04.2019 00:39 11,8 C 41 % 1024,9 hPa 0,0 l/m 0,0 km/h (0 Bft) SO 138 -1,0 C 11,8 C
21.04.2019 00:38 11,8 C 41 % 1024,9 hPa 0,0 l/m 0,0 km/h (0 Bft) SO 138 -1,0 C 11,8 C
21.04.2019 00:37 11,8 C 41 % 1024,9 hPa 0,0 l/m 0,0 km/h (0 Bft) SO 138 -1,0 C 11,8 C
21.04.2019 00:36 11,9 C 42 % 1024,9 hPa 0,0 l/m 0,0 km/h (0 Bft) SO 138 -0,6 C 11,9 C
21.04.2019 00:35 11,9 C 41 % 1024,9 hPa 0,0 l/m 0,0 km/h (0 Bft) SO 138 -0,9 C 11,9 C
21.04.2019 00:34 11,9 C 41 % 1024,9 hPa 0,0 l/m 0,0 km/h (0 Bft) SO 138 -0,9 C 11,9 C
21.04.2019 00:33 11,9 C 41 % 1024,9 hPa 0,0 l/m 0,0 km/h (0 Bft) SO 138 -0,9 C 11,9 C
21.04.2019 00:32 11,9 C 41 % 1025,0 hPa 0,0 l/m 0,0 km/h (0 Bft) SO 138 -0,9 C 11,9 C
21.04.2019 00:31 12,0 C 41 % 1024,9 hPa 0,0 l/m 0,0 km/h (0 Bft) SO 138 -0,8 C 12,0 C
21.04.2019 00:30 12,0 C 41 % 1024,9 hPa 0,0 l/m 0,0 km/h (0 Bft) SO 138 -0,8 C 12,0 C
21.04.2019 00:29 12,0 C 40 % 1024,9 hPa 0,0 l/m 0,0 km/h (0 Bft) SO 138 -1,2 C 12,0 C
21.04.2019 00:28 12,0 C 40 % 1024,9 hPa 0,0 l/m 0,0 km/h (0 Bft) SO 138 -1,2 C 12,0 C
21.04.2019 00:27 12,1 C 40 % 1025,0 hPa 0,0 l/m 0,0 km/h (0 Bft) SO 138 -1,1 C 12,1 C
21.04.2019 00:26 12,1 C 40 % 1025,0 hPa 0,0 l/m 0,0 km/h (0 Bft) SO 139 -1,1 C 12,1 C
21.04.2019 00:25 12,3 C 40 % 1024,9 hPa 0,0 l/m 0,0 km/h (0 Bft) SO 139 -0,9 C 12,3 C
21.04.2019 00:24 12,4 C 40 % 1024,9 hPa 0,0 l/m 0,0 km/h (0 Bft) SO 139 -0,8 C 12,4 C
21.04.2019 00:23 12,5 C 39 % 1025,0 hPa 0,0 l/m 0,0 km/h (0 Bft) SO 138 -1,1 C 12,5 C
21.04.2019 00:22 12,6 C 39 % 1025,0 hPa 0,0 l/m 0,0 km/h (0 Bft) SO 139 -1,0 C 12,6 C
21.04.2019 00:21 12,8 C 39 % 1025,0 hPa 0,0 l/m 0,0 km/h (0 Bft) SO 139 -0,8 C 12,8 C
21.04.2019 00:20 12,9 C 38 % 1025,0 hPa 0,0 l/m 0,0 km/h (0 Bft) SO 139 -1,1 C 12,9 C
21.04.2019 00:19 13,1 C 38 % 1025,0 hPa 0,0 l/m 0,0 km/h (0 Bft) O 94 -0,9 C 13,1 C
21.04.2019 00:18 13,2 C 37 % 1025,0 hPa 0,0 l/m 0,0 km/h (0 Bft) O 94 -1,2 C 13,2 C
21.04.2019 00:17 13,3 C 36 % 1025,0 hPa 0,0 l/m 0,0 km/h (0 Bft) O 94 -1,4 C 13,3 C
21.04.2019 00:16 13,5 C 36 % 1025,0 hPa 0,0 l/m 0,0 km/h (0 Bft) O 94 -1,3 C 13,5 C
21.04.2019 00:15 13,5 C 36 % 1025,0 hPa 0,0 l/m 0,0 km/h (0 Bft) O 94 -1,3 C 13,5 C
21.04.2019 00:14 13,6 C 35 % 1025,0 hPa 0,0 l/m 1,7 km/h (1 Bft) O 92 -1,6 C 13,6 C
21.04.2019 00:13 13,7 C 35 % 1025,1 hPa 0,0 l/m 0,0 km/h (0 Bft) O 91 -1,5 C 13,7 C
21.04.2019 00:12 13,8 C 35 % 1025,0 hPa 0,0 l/m 0,0 km/h (0 Bft) O 91 -1,4 C 13,8 C
21.04.2019 00:11 13,9 C 35 % 1025,0 hPa 0,0 l/m 1,7 km/h (1 Bft) O 91 -1,3 C 13,9 C
21.04.2019 00:10 13,9 C 35 % 1025,0 hPa 0,0 l/m 0,0 km/h (0 Bft) O 90 -1,3 C 13,9 C
21.04.2019 00:09 14,0 C 34 % 1025,0 hPa 0,0 l/m 0,0 km/h (0 Bft) O 90 -1,6 C 14,0 C
21.04.2019 00:08 14,1 C 34 % 1025,1 hPa 0,0 l/m 0,0 km/h (0 Bft) O 90 -1,5 C 14,1 C
21.04.2019 00:07 14,1 C 34 % 1025,0 hPa 0,0 l/m 1,7 km/h (1 Bft) O 90 -1,5 C 14,1 C
21.04.2019 00:06 14,2 C 34 % 1025,0 hPa 0,0 l/m 1,7 km/h (1 Bft) O 90 -1,4 C 14,2 C
21.04.2019 00:05 14,2 C 34 % 1025,0 hPa 0,0 l/m 0,0 km/h (0 Bft) O 92 -1,4 C 14,2 C
21.04.2019 00:04 14,3 C 33 % 1025,0 hPa 0,0 l/m 1,7 km/h (1 Bft) O 89 -1,7 C 14,3 C
21.04.2019 00:03 14,3 C 33 % 1025,0 hPa 0,0 l/m 3,1 km/h (1 Bft) O-NO 78 -1,7 C 14,3 C
21.04.2019 00:02 14,3 C 33 % 1025,0 hPa 0,0 l/m 1,7 km/h (1 Bft) O 86 -1,7 C 14,3 C
21.04.2019 00:01 14,3 C 33 % 1025,0 hPa 0,0 l/m 1,7 km/h (1 Bft) O 86 -1,7 C 14,3 C
21.04.2019 00:00 14,3 C 33 % 1025,0 hPa 0,0 l/m 1,7 km/h (1 Bft) O 86 -1,7 C 14,3 C
_ Min-Zeit 06:05 00:00 12:09 - 00:05 - - 00:00 06:05
Minimum _ 3,9 C 33 % 1021,8 hPa - 0,0 km/h (0 Bft) - - -1,7 C 3,9 C
_ Max-Zeit 12:13 05:10 00:08 00:00 11:57 - - 11:28 11:27
Maximum _ 18,3 C 80 % 1025,1 hPa 0,0 l/m 25,7 km/h
O (4 Bft)
- - 3,2 C 17,2 C
Durchschnitt _ 9,5 C 57 % 1023,8 hPa #0,0 l/m 4,0 km/h (1 Bft) O - 0,8 C 8,6 C